Flight Track Log - Related Links

Times and Time Zones

All times are in EDT time to prevent confusion due to time zone crossing. See the CAL5 flight status page for this flight to view local times or setup timezone preferences in your user account.

Time Position Orientation Groundspeed Altitude Reporting Facility
EDT Latitude Longitude Course Direction KTS MPH feet Rate Location/Type
Wed 08:20:14 PM 33.9340 -118.4350 263° West 182 209 800  Level FlightAware ADS-B
Wed 08:20:44 PM 33.9320 -118.4630 265° West 186 214 1,400 900 Climbing FlightAware ADS-B
Wed 08:21:14 PM 33.9280 -118.4980 262° West 208 239 1,700 643 Climbing FlightAware ADS-B
Wed 08:21:40 PM 33.9250 -118.5290 263° West 228 262 2,000 737 Climbing FlightAware ADS-B
Wed 08:22:11 PM 33.9210 -118.5710 263° West 249 287 2,400 778 Climbing FlightAware ADS-B
Wed 08:22:34 PM 33.9180 -118.6040 264° West 263 303 2,700 1,019 Climbing FlightAware ADS-B
Wed 08:23:04 PM 33.9130 -118.6470 262° West 287 330 3,300 1,440 Climbing FlightAware ADS-B
Wed 08:23:24 PM 33.9100 -118.6820 264° West 290 334 3,900 1,800 Climbing FlightAware ADS-B
Wed 08:23:54 PM 33.9050 -118.7330 263° West 301 346 4,800 1,745 Climbing FlightAware ADS-B
Wed 08:24:19 PM 33.9010 -118.7760 264° West 307 353 5,500 1,800 Climbing FlightAware ADS-B
Wed 08:24:34 PM 33.8990 -118.8030 265° West 312 359 6,000 1,733 Climbing FlightAware ADS-B
Wed 08:25:04 PM 33.8940 -118.8540 263° West 317 365 6,800 2,000 Climbing FlightAware ADS-B
Wed 08:25:25 PM 33.8880 -118.9030 262° West 318 366 7,700 2,082 Climbing FlightAware ADS-B
Wed 08:25:53 PM 33.8830 -118.9530 263° West 323 372 8,500 1,731 Climbing FlightAware ADS-B
Wed 08:26:17 PM 33.8790 -118.9960 264° West 325 374 9,200 1,607 Climbing FlightAware ADS-B
Wed 08:26:49 PM 33.8940 -119.0510 288° West 330 380 10,000 1,200 Climbing FlightAware ADS-B
Wed 08:27:37 PM 33.9490 -119.1170 315° West 355 409 10,800 655 Climbing FlightAware ADS-B
Wed 08:28:39 PM 34.0170 -119.1950 316° Northwest 369 425 11,200 245 Climbing FlightAware ADS-B
Wed 08:29:15 PM 34.0550 -119.2380 317° Northwest 369 425 11,200 1,735 Level FlightAware ADS-B
Wed 08:30:02 PM 34.1400 -119.3370 316° Northwest 425 489 13,600 2,483 Climbing FlightAware ADS-B
Wed 08:30:42 PM 34.1970 -119.4040 316° Northwest 428 493 14,800 1,216 Climbing FlightAware ADS-B
Wed 08:31:16 PM 34.2380 -119.4530 315° West 429 494 15,100 1,133 Climbing FlightAware ADS-B
Wed 08:32:12 PM 34.3210 -119.5500 316° Northwest 444 511 16,500 1,938 Climbing FlightAware ADS-B
Wed 08:32:52 PM 34.3890 -119.6290 316° Northwest 460 529 18,200 1,432 Climbing FlightAware ADS-B
Wed 08:33:40 PM 34.4540 -119.7070 315° West 464 534 18,600 1,390 Climbing FlightAware ADS-B
Wed 08:34:14 PM 34.5170 -119.7820 316° Northwest 475 547 20,100 1,500 Climbing FlightAware ADS-B
Wed 08:34:48 PM 34.5620 -119.8400 313° West 477 549 20,300 1,425 Climbing FlightAware ADS-B
Wed 08:35:34 PM 34.6360 -119.9410 312° West 485 558 22,000 1,680 Climbing FlightAware ADS-B
Wed 08:36:28 PM 34.7180 -120.0520 312° West 491 565 23,100 1,200 Climbing FlightAware ADS-B
Wed 08:37:14 PM 34.7860 -120.1430 312° West 495 570 24,000 1,125 Climbing FlightAware ADS-B
Wed 08:37:48 PM 34.8380 -120.2140 312° West 499 574 24,600 987 Climbing FlightAware ADS-B
Wed 08:38:33 PM 34.9090 -120.3110 312° West 507 583 25,300 494 Climbing FlightAware ADS-B
Wed 08:39:13 PM 34.9610 -120.3850 311° West 507 583 25,300  Level FlightAware ADS-B
Wed 08:39:50 PM 35.0090 -120.4530 311° West 507 583 25,300 1,273 Level FlightAware ADS-B
Wed 08:40:52 PM 35.1280 -120.6120 312° West 522 601 27,400 1,776 Climbing FlightAware ADS-B
Wed 08:41:28 PM 35.1880 -120.6940 312° West 520 598 28,200 1,200 Climbing FlightAware ADS-B
Wed 08:42:02 PM 35.2400 -120.7660 311° West 518 596 28,800 990 Climbing FlightAware ADS-B
Wed 08:43:05 PM 35.3400 -120.9040 312° West 518 596 29,800 692 Climbing FlightAware ADS-B
Wed 08:43:46 PM 35.4050 -120.9950 311° West 518 596 30,000 145 Climbing FlightAware ADS-B
Wed 08:44:28 PM 35.4730 -121.0890 312° West 515 593 30,000  Level FlightAware ADS-B
Wed 08:45:10 PM 35.5380 -121.1800 311° West 513 590 30,000  Level FlightAware ADS-B
Wed 08:45:54 PM 35.6130 -121.2690 316° Northwest 515 593 30,000  Level FlightAware ADS-B
Wed 08:46:26 PM 35.6760 -121.3220 326° Northwest 517 595 30,000  Level FlightAware ADS-B
Wed 08:47:10 PM 35.7650 -121.3920 327° Northwest 514 592 30,000  Level FlightAware ADS-B
Wed 08:47:54 PM 35.8530 -121.4600 328° Northwest 514 592 30,000  Level FlightAware ADS-B
Wed 08:48:30 PM 35.9230 -121.5160 327° Northwest 514 592 30,000  Level FlightAware ADS-B
Wed 08:49:10 PM 36.0030 -121.5790 328° Northwest 513 590 30,000  Level FlightAware ADS-B
Wed 08:49:54 PM 36.0940 -121.6510 327° Northwest 514 592 30,000  Level FlightAware ADS-B
Wed 08:50:25 PM 36.1550 -121.6990 328° Northwest 515 593 30,000  Level FlightAware ADS-B
Wed 08:51:04 PM 36.2320 -121.7610 327° Northwest 515 593 30,000  Level FlightAware ADS-B
Wed 08:51:51 PM 36.3250 -121.8350 327° Northwest 514 592 30,000  Level FlightAware ADS-B
Wed 08:52:26 PM 36.3960 -121.8920 327° Northwest 513 590 30,000  Level FlightAware ADS-B
Wed 08:53:06 PM 36.4760 -121.9550 328° Northwest 513 590 30,000  Level FlightAware ADS-B
Wed 08:53:50 PM 36.5630 -122.0260 327° Northwest 513 590 30,000  Level FlightAware ADS-B
Wed 08:54:30 PM 36.6440 -122.0910 327° Northwest 513 590 30,000  Level FlightAware ADS-B
Wed 08:55:12 PM 36.7270 -122.1580 327° Northwest 512 589 30,000  Level FlightAware ADS-B
Wed 08:55:55 PM 36.8110 -122.2260 327° Northwest 511 588 30,000  Level FlightAware ADS-B
Wed 08:56:40 PM 36.9010 -122.2990 327° Northwest 510 587 30,000  Level FlightAware ADS-B
Wed 08:57:16 PM 36.9730 -122.3580 327° Northwest 510 587 30,000  Level FlightAware ADS-B
Wed 08:57:56 PM 37.0510 -122.4210 327° Northwest 510 587 30,000  Level FlightAware ADS-B
Wed 08:58:36 PM 37.1300 -122.4860 327° Northwest 509 586 30,000  Level FlightAware ADS-B
Wed 08:59:16 PM 37.2080 -122.5500 327° Northwest 509 586 30,000  Level FlightAware ADS-B
Wed 08:59:56 PM 37.2880 -122.6160 327° Northwest 511 588 30,000  Level FlightAware ADS-B
Wed 09:00:36 PM 37.3670 -122.6810 327° Northwest 513 590 30,000  Level FlightAware ADS-B
Wed 09:01:17 PM 37.4430 -122.7440 327° Northwest 515 593 30,000  Level FlightAware ADS-B
Wed 09:02:00 PM 37.5350 -122.8210 326° Northwest 514 592 30,000  Level FlightAware ADS-B
Wed 09:02:40 PM 37.6160 -122.8880 327° Northwest 512 589 30,000  Level FlightAware ADS-B
Wed 09:03:24 PM 37.7020 -122.9600 326° Northwest 513 590 30,000  Level FlightAware ADS-B
Wed 09:04:04 PM 37.7810 -123.0250 327° Northwest 513 590 30,000  Level FlightAware ADS-B
Wed 09:04:40 PM 37.8510 -123.0840 326° Northwest 513 590 30,000  Level FlightAware ADS-B
Wed 09:05:22 PM 37.9350 -123.1540 327° Northwest 513 590 30,000  Level FlightAware ADS-B
Wed 09:06:06 PM 38.0210 -123.2270 326° Northwest 513 590 30,000  Level FlightAware ADS-B
Wed 09:06:48 PM 38.1050 -123.2980 326° Northwest 513 590 30,000  Level FlightAware ADS-B
Wed 09:07:27 PM 38.1780 -123.3600 326° Northwest 513 590 30,000  Level FlightAware ADS-B
Wed 09:08:12 PM 38.2700 -123.4380 326° Northwest 512 589 30,000  Level FlightAware ADS-B
Wed 09:08:52 PM 38.3490 -123.5050 326° Northwest 513 590 30,000  Level FlightAware ADS-B
Wed 09:09:28 PM 38.4190 -123.5660 326° Northwest 513 590 30,000  Level FlightAware ADS-B
Wed 09:10:08 PM 38.5000 -123.6340 327° Northwest 512 589 30,000  Level FlightAware ADS-B
Wed 09:10:54 PM 38.5890 -123.7110 326° Northwest 511 588 30,000  Level FlightAware ADS-B
Wed 09:10:58 PM 38.5990 -123.7200 325° Northwest 511 588 30,000  Level FlightAware ADS-B
Wed 09:12:06 PM 38.7280 -123.8310 326° Northwest 509 586 30,000  Level FlightAware ADS-B
Wed 09:12:44 PM 38.8060 -123.8980 326° Northwest 509 586 30,000  Level FlightAware ADS-B
Wed 09:13:24 PM 38.8720 -123.9570 325° Northwest 509 586 30,000  Level FlightAware ADS-B
Wed 09:14:22 PM 38.9960 -124.0630 326° Northwest 508 585 30,000  Level FlightAware ADS-B
Wed 09:15:24 PM 39.1070 -124.1610 326° Northwest 507 583 30,000  Level FlightAware ADS-B
Wed 09:16:12 PM 39.1850 -124.2320 325° Northwest 507 583 30,000  Level FlightAware ADS-B
Wed 09:16:48 PM 39.2440 -124.2850 325° Northwest 507 583 30,000  Level FlightAware ADS-B
Wed 09:17:24 PM 39.3030 -124.3380 325° Northwest 507 583 30,000  Level FlightAware ADS-B
Wed 09:18:08 PM 39.4310 -124.4460 327° Northwest 509 586 30,000  Level FlightAware ADS-B
Wed 09:18:52 PM 39.5200 -124.5240 326° Northwest 510 587 30,000  Level FlightAware ADS-B
Wed 09:19:23 PM 39.5700 -124.5690 325° Northwest 510 587 30,000  Level FlightAware ADS-B
Wed 09:20:12 PM 39.6710 -124.6600 325° Northwest 511 588 30,000  Level FlightAware ADS-B
Wed 09:20:56 PM 39.7450 -124.7260 326° Northwest 511 588 30,000  Level FlightAware ADS-B
Wed 09:21:32 PM 39.8040 -124.7800 325° Northwest 511 588 30,000  Level FlightAware ADS-B
Wed 09:22:20 PM 39.8830 -124.8520 325° Northwest 511 588 30,000  Level FlightAware ADS-B
Wed 09:22:56 PM 39.9420 -124.9060 325° Northwest 511 588 30,000  Level FlightAware ADS-B
Wed 09:23:38 PM 40.0680 -125.0170 326° Northwest 512 589 30,000  Level FlightAware ADS-B
Wed 09:24:16 PM 40.1310 -125.0740 325° Northwest 512 589 30,000  Level FlightAware ADS-B
Wed 09:24:52 PM 40.1900 -125.1290 325° Northwest 512 589 30,000  Level FlightAware ADS-B
Wed 09:25:40 PM 40.2700 -125.2010 326° Northwest 512 589 30,000  Level FlightAware ADS-B
Wed 09:26:16 PM 40.3290 -125.2560 325° Northwest 512 589 30,000  Level FlightAware ADS-B
Wed 09:26:52 PM 40.3880 -125.3100 325° Northwest 512 589 30,000  Level FlightAware ADS-B
Wed 09:27:29 PM 40.4490 -125.3660 325° Northwest 512 589 30,000  Level FlightAware ADS-B
Wed 09:28:17 PM 40.5290 -125.4390 325° Northwest 512 589 30,000  Level FlightAware ADS-B
Wed 09:28:54 PM 40.5900 -125.4960 325° Northwest 512 589 30,000  Level FlightAware ADS-B
Wed 09:29:42 PM 40.6690 -125.5690 325° Northwest 512 589 30,000  Level FlightAware ADS-B
Wed 09:30:18 PM 40.7280 -125.6230 325° Northwest 512 589 30,000  Level FlightAware ADS-B
Wed 09:31:06 PM 40.8070 -125.6970 325° Northwest 512 589 30,000  Level FlightAware ADS-B
Wed 09:31:42 PM 40.8670 -125.7520 325° Northwest 512 589 30,000  Level FlightAware ADS-B
Wed 09:32:30 PM 40.9460 -125.8250 325° Northwest 512 589 30,000  Level FlightAware ADS-B
Wed 09:33:06 PM 41.0050 -125.8800 325° Northwest 512 589 30,000  Level FlightAware ADS-B
Wed 09:33:40 PM 41.2311 -126.0944 325° Northwest 508 585 30,000 -67 Level Oakland Center
Wed 09:34:36 PM 41.3242 -126.1808 325° Northwest 510 587 29,900  Descending Seattle Center
Wed 09:35:37 PM 41.4400 -126.2914 324° Northwest 510 587 30,000 49 Climbing Seattle Center
Wed 09:36:38 PM 41.5550 -126.4014 324° Northwest 509 586 30,000 -49 Level Seattle Center
Wed 09:37:39 PM 41.6647 -126.5183 321° Northwest 506 582 29,900  Descending Seattle Center
Wed 09:38:40 PM 41.7272 -126.6769 298° West 483 556 30,000 55 Climbing Seattle Center
Wed 09:39:29 PM 41.7833 -126.8333 298° West 480 552 30,000  Level Oakland Oceanic (ODAPS)
Wed 09:46:00 PM 42.2150 -127.9215 298° West 480 552 30,000  Level FlightAware Transoceanic
Wed 09:47:00 PM 42.2758 -128.0782 298° West 480 552 30,000  Level FlightAware Transoceanic
Wed 09:48:00 PM 42.3365 -128.2352 298° West 480 552 30,000  Level FlightAware Transoceanic
Wed 09:49:00 PM 42.3969 -128.3925 297° West 480 552 30,000  Level FlightAware Transoceanic
Wed 09:50:00 PM 42.4570 -128.5500 297° West 480 552 30,000  Level FlightAware Transoceanic
Wed 09:50:01 PM 42.4500 -128.5333 297° West 490 564 30,000  Level Oakland Oceanic (ODAPS)
Wed 09:51:00 PM 42.5170 -128.7079 297° West 480 552 30,000  Level FlightAware Transoceanic
Wed 09:52:00 PM 42.5768 -128.8661 297° West 480 552 30,000  Level FlightAware Transoceanic
Wed 09:53:00 PM 42.6363 -129.0246 297° West 480 552 30,000  Level FlightAware Transoceanic
Wed 09:54:00 PM 42.6956 -129.1834 297° West 480 552 30,000  Level FlightAware Transoceanic
Wed 09:55:00 PM 42.7547 -129.3424 297° West 480 552 30,000  Level FlightAware Transoceanic
Wed 09:56:00 PM 42.8348 -129.5606 297° West 490 564 30,000  Level FlightAware Transoceanic
Wed 09:57:00 PM 42.8980 -129.7330 297° West 490 564 30,000  Level FlightAware Transoceanic
Wed 09:58:00 PM 42.9610 -129.9058 296° West 490 564 30,000  Level FlightAware Transoceanic
Wed 09:59:00 PM 43.0237 -130.0790 296° West 490 564 30,000  Level FlightAware Transoceanic
Wed 10:00:00 PM 43.0862 -130.2525 296° West 490 564 30,000  Level FlightAware Transoceanic
Wed 10:01:00 PM 43.1483 -130.4263 296° West 490 564 30,000  Level FlightAware Transoceanic
Wed 10:02:00 PM 43.2103 -130.6005 296° West 490 564 30,000  Level FlightAware Transoceanic
Wed 10:03:00 PM 43.2719 -130.7751 296° West 490 564 30,000  Level FlightAware Transoceanic
Wed 10:04:00 PM 43.3333 -130.9500 296° West 490 564 30,000  Level FlightAware Transoceanic
Wed 10:04:30 PM 43.3333 -130.9500 296° West 506 582 30,000  Level Oakland Oceanic (ODAPS)
Wed 10:05:00 PM 43.3960 -131.1299 296° West 490 564 30,000  Level FlightAware Transoceanic
Wed 10:06:00 PM 43.4583 -131.3103 295° West 490 564 30,000  Level FlightAware Transoceanic
Wed 10:07:00 PM 43.5204 -131.4909 295° West 490 564 30,000  Level FlightAware Transoceanic
Wed 10:08:00 PM 43.5822 -131.6720 295° West 490 564 30,000  Level FlightAware Transoceanic
Wed 10:09:00 PM 43.6437 -131.8534 295° West 490 564 30,000  Level FlightAware Transoceanic
Wed 10:10:00 PM 43.6902 -131.9915 295° West 506 582 30,000  Level FlightAware Transoceanic
Wed 10:11:00 PM 43.7487 -132.1663 295° West 506 582 30,000  Level FlightAware Transoceanic
Wed 10:12:00 PM 43.8070 -132.3415 295° West 506 582 30,000  Level FlightAware Transoceanic
Wed 10:13:00 PM 43.8651 -132.5170 295° West 506 582 30,000  Level FlightAware Transoceanic
Wed 10:14:00 PM 43.9228 -132.6928 294° West 506 582 30,000  Level FlightAware Transoceanic
Wed 10:15:00 PM 43.9803 -132.8689 294° West 506 582 30,000  Level FlightAware Transoceanic
Wed 10:16:00 PM 44.0375 -133.0454 294° West 506 582 30,000 600 Level FlightAware Transoceanic
Wed 10:16:40 PM 44.0500 -133.0667 294° West 508 585 31,000  Climbing Oakland Oceanic (ODAPS)
Wed 10:17:00 PM 44.0944 -133.2222 294° West 506 582 30,000 -750 Descending FlightAware Transoceanic
Wed 10:18:00 PM 44.1511 -133.3994 294° West 506 582 30,000  Level FlightAware Transoceanic
Wed 10:19:00 PM 44.2075 -133.5769 294° West 506 582 30,000  Level FlightAware Transoceanic
Wed 10:20:00 PM 44.2636 -133.7548 294° West 506 582 30,000  Level FlightAware Transoceanic
Wed 10:21:00 PM 44.3194 -133.9330 294° West 506 582 30,000 500 Level FlightAware Transoceanic
Wed 10:22:00 PM 44.3376 -133.9757 293° West 508 585 31,000 500 Climbing FlightAware Transoceanic
Wed 10:23:00 PM 44.3943 -134.1586 293° West 508 585 31,000  Level FlightAware Transoceanic
Wed 10:24:00 PM 44.4506 -134.3418 293° West 508 585 31,000  Level FlightAware Transoceanic
Wed 10:25:00 PM 44.5067 -134.5254 293° West 508 585 31,000  Level FlightAware Transoceanic
Wed 10:26:00 PM 44.5625 -134.7094 293° West 508 585 31,000  Level FlightAware Transoceanic
Wed 10:27:00 PM 44.6180 -134.8936 293° West 508 585 31,000  Level FlightAware Transoceanic
Wed 10:28:00 PM 44.6732 -135.0783 293° West 508 585 31,000  Level FlightAware Transoceanic
Wed 10:29:00 PM 44.7280 -135.2633 293° West 508 585 31,000  Level FlightAware Transoceanic
Wed 10:30:00 PM 44.7826 -135.4486 292° West 508 585 31,000  Level FlightAware Transoceanic
Wed 10:31:00 PM 44.8369 -135.6343 292° West 508 585 31,000  Level FlightAware Transoceanic
Wed 10:32:00 PM 44.8909 -135.8203 292° West 508 585 31,000  Level FlightAware Transoceanic
Wed 10:33:00 PM 44.9446 -136.0067 292° West 508 585 31,000  Level FlightAware Transoceanic
Wed 10:34:00 PM 44.9980 -136.1935 292° West 508 585 31,000  Level FlightAware Transoceanic
Wed 10:35:00 PM 45.0510 -136.3805 292° West 508 585 31,000  Level FlightAware Transoceanic
Wed 10:36:00 PM 45.1038 -136.5680 292° West 508 585 31,000  Level FlightAware Transoceanic
Wed 10:37:00 PM 45.1563 -136.7557 292° West 508 585 31,000  Level FlightAware Transoceanic
Wed 10:38:00 PM 45.2084 -136.9439 291° West 508 585 31,000  Level FlightAware Transoceanic
Wed 10:39:00 PM 45.2603 -137.1323 291° West 508 585 31,000  Level FlightAware Transoceanic
Wed 10:40:00 PM 45.3118 -137.3211 291° West 508 585 31,000  Level FlightAware Transoceanic
Wed 10:41:00 PM 45.3630 -137.5103 291° West 508 585 31,000  Level FlightAware Transoceanic
Wed 10:42:00 PM 45.4139 -137.6998 291° West 508 585 31,000  Level FlightAware Transoceanic
Wed 10:43:00 PM 45.4645 -137.8896 291° West 508 585 31,000  Level FlightAware Transoceanic
Wed 10:43:44 PM 45.5000 -138.0500 291° West 527 606 31,000  Level Oakland Oceanic (ODAPS)
Wed 10:44:00 PM 45.5148 -138.0798 291° West 508 585 31,000  Level FlightAware Transoceanic
Wed 10:45:00 PM 45.5648 -138.2703 290° West 508 585 31,000  Level FlightAware Transoceanic
Wed 10:46:00 PM 45.6144 -138.4612 290° West 508 585 31,000  Level FlightAware Transoceanic
Wed 10:47:00 PM 45.6637 -138.6523 290° West 508 585 31,000  Level FlightAware Transoceanic
Wed 10:48:00 PM 45.7127 -138.8439 290° West 508 585 31,000  Level FlightAware Transoceanic
Wed 10:49:00 PM 45.7614 -139.0357 290° West 508 585 31,000  Level FlightAware Transoceanic
Wed 10:50:00 PM 45.8535 -139.4113 290° West 527 606 31,000  Level FlightAware Transoceanic
Wed 10:51:00 PM 45.9027 -139.6072 290° West 527 606 31,000  Level FlightAware Transoceanic
Wed 10:52:00 PM 45.9515 -139.8034 290° West 527 606 31,000  Level FlightAware Transoceanic
Wed 10:53:00 PM 46.0000 -140.0000 282° West 527 606 31,000  Level FlightAware Transoceanic
Wed 10:53:30 PM 46.0000 -140.0000 282° West 528 608 31,000  Level Oakland Oceanic (ODAPS)
Wed 10:54:00 PM 46.0309 -140.2130 282° West 527 606 31,000  Level FlightAware Transoceanic
Wed 10:55:00 PM 46.0614 -140.4262 282° West 527 606 31,000  Level FlightAware Transoceanic
Wed 10:56:00 PM 46.0915 -140.6397 281° West 527 606 31,000  Level FlightAware Transoceanic
Wed 10:57:00 PM 46.1212 -140.8534 281° West 527 606 31,000  Level FlightAware Transoceanic
Wed 10:58:00 PM 46.1505 -141.0673 281° West 527 606 31,000  Level FlightAware Transoceanic
Wed 10:59:00 PM 46.1722 -141.2279 281° West 528 608 31,000  Level FlightAware Transoceanic
Wed 11:00:00 PM 46.1997 -141.4332 281° West 528 608 31,000  Level FlightAware Transoceanic
Wed 11:01:00 PM 46.2267 -141.6388 281° West 528 608 31,000  Level FlightAware Transoceanic
Wed 11:02:00 PM 46.2534 -141.8446 281° West 528 608 31,000  Level FlightAware Transoceanic
Wed 11:03:00 PM 46.2798 -142.0506 280° West 528 608 31,000  Level FlightAware Transoceanic
Wed 11:04:00 PM 46.3057 -142.2568 280° West 528 608 31,000  Level FlightAware Transoceanic
Wed 11:05:00 PM 46.3313 -142.4632 280° West 528 608 31,000  Level FlightAware Transoceanic
Wed 11:06:00 PM 46.3565 -142.6697 280° West 528 608 31,000  Level FlightAware Transoceanic
Wed 11:07:00 PM 46.3813 -142.8765 280° West 528 608 31,000  Level FlightAware Transoceanic
Wed 11:08:00 PM 46.4058 -143.0834 280° West 528 608 31,000  Level FlightAware Transoceanic
Wed 11:09:00 PM 46.4299 -143.2906 280° West 528 608 31,000  Level FlightAware Transoceanic
Wed 11:10:00 PM 46.4536 -143.4979 279° West 528 608 31,000  Level FlightAware Transoceanic
Wed 11:10:03 PM 46.4500 -143.4333 279° West 529 609 31,000  Level Oakland Oceanic (ODAPS)
Wed 11:11:00 PM 46.4769 -143.7054 279° West 528 608 31,000  Level FlightAware Transoceanic
Wed 11:12:00 PM 46.4999 -143.9130 279° West 528 608 31,000  Level FlightAware Transoceanic
Wed 11:13:00 PM 46.5225 -144.1209 279° West 528 608 31,000  Level FlightAware Transoceanic
Wed 11:14:00 PM 46.5447 -144.3289 279° West 528 608 31,000  Level FlightAware Transoceanic
Wed 11:15:00 PM 46.5665 -144.5370 279° West 528 608 31,000  Level FlightAware Transoceanic
Wed 11:16:00 PM 46.5857 -144.6932 278° West 529 609 31,000  Level FlightAware Transoceanic
Wed 11:17:00 PM 46.6069 -144.9037 278° West 529 609 31,000  Level FlightAware Transoceanic
Wed 11:18:00 PM 46.6278 -145.1145 278° West 529 609 31,000  Level FlightAware Transoceanic
Wed 11:19:00 PM 46.6483 -145.3254 278° West 529 609 31,000  Level FlightAware Transoceanic
Wed 11:20:00 PM 46.6684 -145.5364 278° West 529 609 31,000  Level FlightAware Transoceanic
Wed 11:21:00 PM 46.6881 -145.7476 278° West 529 609 31,000  Level FlightAware Transoceanic
Wed 11:22:00 PM 46.7074 -145.9590 278° West 529 609 31,000  Level FlightAware Transoceanic
Wed 11:23:00 PM 46.7263 -146.1705 277° West 529 609 31,000  Level FlightAware Transoceanic
Wed 11:24:00 PM 46.7449 -146.3822 277° West 529 609 31,000  Level FlightAware Transoceanic
Wed 11:25:00 PM 46.7630 -146.5940 277° West 529 609 31,000  Level FlightAware Transoceanic
Wed 11:26:00 PM 46.7808 -146.8059 277° West 529 609 31,000  Level FlightAware Transoceanic
Wed 11:27:00 PM 46.7982 -147.0180 277° West 529 609 31,000  Level FlightAware Transoceanic
Wed 11:28:00 PM 46.8152 -147.2302 277° West 529 609 31,000  Level FlightAware Transoceanic
Wed 11:29:00 PM 46.8317 -147.4426 276° West 529 609 31,000  Level FlightAware Transoceanic
Wed 11:30:00 PM 46.8479 -147.6550 276° West 529 609 31,000  Level FlightAware Transoceanic
Wed 11:31:00 PM 46.8637 -147.8676 276° West 529 609 31,000  Level FlightAware Transoceanic
Wed 11:32:00 PM 46.8791 -148.0804 276° West 529 609 31,000  Level FlightAware Transoceanic
Wed 11:33:00 PM 46.8941 -148.2932 276° West 529 609 31,000  Level FlightAware Transoceanic
Wed 11:34:00 PM 46.9088 -148.5062 276° West 529 609 31,000  Level FlightAware Transoceanic
Wed 11:35:00 PM 46.9230 -148.7193 276° West 529 609 31,000  Level FlightAware Transoceanic
Wed 11:36:00 PM 46.9368 -148.9325 275° West 529 609 31,000 588 Level FlightAware Transoceanic
Wed 11:36:42 PM 46.9500 -149.0667 275° West 531 611 32,000  Climbing Oakland Oceanic (ODAPS)
Wed 11:37:00 PM 46.9502 -149.1458 275° West 529 609 31,000 -769 Descending FlightAware Transoceanic
Wed 11:38:00 PM 46.9633 -149.3592 275° West 529 609 31,000  Level FlightAware Transoceanic
Wed 11:39:00 PM 46.9759 -149.5727 275° West 529 609 31,000  Level FlightAware Transoceanic
Wed 11:40:00 PM 46.9882 -149.7863 275° West 529 609 31,000  Level FlightAware Transoceanic
Wed 11:41:00 PM 47.0000 -150.0000 274° West 529 609 31,000 789 Level FlightAware Transoceanic
Wed 11:41:16 PM 47.0000 -150.0000 274° West 532 612 32,000 1,000 Climbing Oakland Oceanic (ODAPS)
Wed 11:42:00 PM 47.0093 -150.2168 274° West 531 611 32,000  Level FlightAware Transoceanic
Wed 11:43:00 PM 47.0181 -150.4337 273° West 531 611 32,000  Level FlightAware Transoceanic
Wed 11:44:00 PM 47.0265 -150.6507 273° West 531 611 32,000  Level FlightAware Transoceanic
Wed 11:45:00 PM 47.0346 -150.8678 273° West 531 611 32,000  Level FlightAware Transoceanic
Wed 11:46:00 PM 47.0422 -151.0849 273° West 531 611 32,000  Level FlightAware Transoceanic
Wed 11:47:00 PM 47.0494 -151.3021 273° West 532 612 32,000  Level FlightAware Transoceanic
Wed 11:48:00 PM 47.0562 -151.5193 273° West 532 612 32,000  Level FlightAware Transoceanic
Wed 11:49:00 PM 47.0626 -151.7366 272° West 532 612 32,000  Level FlightAware Transoceanic
Wed 11:50:00 PM 47.0685 -151.9539 272° West 532 612 32,000  Level FlightAware Transoceanic
Wed 11:51:00 PM 47.0741 -152.1713 272° West 532 612 32,000  Level FlightAware Transoceanic
Wed 11:52:00 PM 47.0793 -152.3887 272° West 532 612 32,000  Level FlightAware Transoceanic
Wed 11:53:00 PM 47.0840 -152.6062 272° West 532 612 32,000  Level FlightAware Transoceanic
Wed 11:54:00 PM 47.0883 -152.8237 272° West 532 612 32,000  Level FlightAware Transoceanic
Wed 11:55:00 PM 47.0922 -153.0412 271° West 532 612 32,000  Level FlightAware Transoceanic
Wed 11:56:00 PM 47.0957 -153.2588 271° West 532 612 32,000  Level FlightAware Transoceanic
Wed 11:57:00 PM 47.0988 -153.4764 271° West 532 612 32,000  Level FlightAware Transoceanic
Wed 11:58:00 PM 47.1015 -153.6940 271° West 532 612 32,000  Level FlightAware Transoceanic
Wed 11:59:00 PM 47.1038 -153.9116 271° West 532 612 32,000  Level FlightAware Transoceanic
Thu 12:00:00 AM 47.1056 -154.1293 271° West 532 612 32,000  Level FlightAware Transoceanic
Thu 12:01:00 AM 47.1071 -154.3470 270° West 532 612 32,000  Level FlightAware Transoceanic
Thu 12:02:00 AM 47.1081 -154.5646 270° West 532 612 32,000  Level FlightAware Transoceanic
Thu 12:03:00 AM 47.1087 -154.7823 270° West 532 612 32,000  Level FlightAware Transoceanic
Thu 12:03:22 AM 47.1167 -154.8000 270° West 527 606 32,000  Level Oakland Oceanic (ODAPS)
Thu 12:04:00 AM 47.1089 -155.0000 270° West 532 612 32,000  Level FlightAware Transoceanic
Thu 12:05:00 AM 47.1087 -155.2177 270° West 532 612 32,000  Level FlightAware Transoceanic
Thu 12:06:00 AM 47.1081 -155.4354 270° West 532 612 32,000  Level FlightAware Transoceanic
Thu 12:07:00 AM 47.1071 -155.6530 270° West 532 612 32,000  Level FlightAware Transoceanic
Thu 12:08:00 AM 47.1056 -155.8707 269° West 532 612 32,000  Level FlightAware Transoceanic
Thu 12:09:00 AM 47.1101 -156.0497 269° West 527 606 32,000  Level FlightAware Transoceanic
Thu 12:10:00 AM 47.1077 -156.2580 269° West 527 606 32,000  Level FlightAware Transoceanic
Thu 12:11:00 AM 47.1050 -156.4662 269° West 527 606 32,000  Level FlightAware Transoceanic
Thu 12:12:00 AM 47.1018 -156.6744 269° West 527 606 32,000  Level FlightAware Transoceanic
Thu 12:13:00 AM 47.0983 -156.8826 268° West 527 606 32,000  Level FlightAware Transoceanic
Thu 12:14:00 AM 47.0943 -157.0907 268° West 527 606 32,000  Level FlightAware Transoceanic
Thu 12:15:00 AM 47.0900 -157.2988 268° West 527 606 32,000  Level FlightAware Transoceanic
Thu 12:16:00 AM 47.0854 -157.5069 268° West 527 606 32,000  Level FlightAware Transoceanic
Thu 12:17:00 AM 47.0803 -157.7149 268° West 527 606 32,000  Level FlightAware Transoceanic
Thu 12:18:00 AM 47.0749 -157.9229 268° West 527 606 32,000  Level FlightAware Transoceanic
Thu 12:19:00 AM 47.0691 -158.1309 268° West 527 606 32,000  Level FlightAware Transoceanic
Thu 12:20:00 AM 47.0629 -158.3388 267° West 527 606 32,000  Level FlightAware Transoceanic
Thu 12:21:00 AM 47.0564 -158.5466 267° West 527 606 32,000  Level FlightAware Transoceanic
Thu 12:22:00 AM 47.0494 -158.7544 267° West 527 606 32,000  Level FlightAware Transoceanic
Thu 12:23:00 AM 47.0421 -158.9622 267° West 527 606 32,000  Level FlightAware Transoceanic
Thu 12:24:00 AM 47.0345 -159.1699 267° West 527 606 32,000  Level FlightAware Transoceanic
Thu 12:25:00 AM 47.0264 -159.3775 267° West 527 606 32,000  Level FlightAware Transoceanic
Thu 12:26:00 AM 47.0180 -159.5851 267° West 527 606 32,000  Level FlightAware Transoceanic
Thu 12:27:00 AM 47.0092 -159.7926 266° West 527 606 32,000  Level FlightAware Transoceanic
Thu 12:28:00 AM 47.0000 -160.0000 274° West 527 606 32,000  Level FlightAware Transoceanic
Thu 12:28:32 AM 47.0000 -160.0000 274° West 511 588 32,000  Level Oakland Oceanic (ODAPS)
Thu 12:29:00 AM 47.0089 -160.2078 274° West 527 606 32,000  Level FlightAware Transoceanic
Thu 12:30:00 AM 47.0174 -160.4157 273° West 527 606 32,000  Level FlightAware Transoceanic
Thu 12:30:02 AM 47.0167 -160.3667 273° West 505 581 32,000  Level Oakland Oceanic (ODAPS)
Thu 12:31:00 AM 47.0255 -160.6236 273° West 527 606 32,000  Level FlightAware Transoceanic
Thu 12:32:00 AM 47.0333 -160.8316 273° West 527 606 32,000  Level FlightAware Transoceanic
Thu 12:33:00 AM 47.0406 -161.0397 273° West 527 606 32,000  Level FlightAware Transoceanic
Thu 12:34:00 AM 47.0476 -161.2478 273° West 511 588 32,000  Level FlightAware Transoceanic
Thu 12:35:00 AM 47.0542 -161.4559 273° West 511 588 32,000  Level FlightAware Transoceanic
Thu 12:36:00 AM 47.0595 -161.5948 272° West 505 581 32,000  Level FlightAware Transoceanic
Thu 12:37:00 AM 47.0654 -161.7996 272° West 505 581 32,000  Level FlightAware Transoceanic
Thu 12:38:00 AM 47.0709 -162.0045 272° West 505 581 32,000  Level FlightAware Transoceanic
Thu 12:39:00 AM 47.0761 -162.2095 272° West 505 581 32,000  Level FlightAware Transoceanic
Thu 12:40:00 AM 47.0808 -162.4145 272° West 505 581 32,000  Level FlightAware Transoceanic
Thu 12:41:00 AM 47.0852 -162.6195 272° West 505 581 32,000  Level FlightAware Transoceanic
Thu 12:42:00 AM 47.0893 -162.8246 272° West 505 581 32,000  Level FlightAware Transoceanic
Thu 12:43:00 AM 47.0929 -163.0296 271° West 505 581 32,000  Level FlightAware Transoceanic
Thu 12:44:00 AM 47.0963 -163.2347 271° West 505 581 32,000  Level FlightAware Transoceanic
Thu 12:45:00 AM 47.0992 -163.4399 271° West 505 581 32,000  Level FlightAware Transoceanic
Thu 12:46:00 AM 47.1018 -163.6450 271° West 505 581 32,000  Level FlightAware Transoceanic
Thu 12:47:00 AM 47.1040 -163.8502 271° West 505 581 32,000  Level FlightAware Transoceanic
Thu 12:48:00 AM 47.1058 -164.0554 271° West 505 581 32,000  Level FlightAware Transoceanic
Thu 12:49:00 AM 47.1073 -164.2606 271° West 505 581 32,000  Level FlightAware Transoceanic
Thu 12:50:00 AM 47.1084 -164.4658 270° West 505 581 32,000  Level FlightAware Transoceanic
Thu 12:51:00 AM 47.1092 -164.6710 270° West 505 581 32,000  Level FlightAware Transoceanic
Thu 12:52:00 AM 47.1095 -164.8763 270° West 505 581 32,000  Level FlightAware Transoceanic
Thu 12:53:00 AM 47.1096 -165.0815 270° West 505 581 32,000  Level FlightAware Transoceanic
Thu 12:54:00 AM 47.1092 -165.2867 270° West 505 581 32,000  Level FlightAware Transoceanic
Thu 12:55:00 AM 47.1085 -165.4919 270° West 505 581 32,000  Level FlightAware Transoceanic
Thu 12:56:00 AM 47.1074 -165.6971 269° West 505 581 32,000  Level FlightAware Transoceanic
Thu 12:56:42 AM 47.1000 -165.7500 270° West 482 555 32,000  Level Oakland Oceanic (ODAPS)
Thu 12:57:00 AM 47.1059 -165.9023 269° West 505 581 32,000  Level FlightAware Transoceanic
Thu 12:58:00 AM 47.1041 -166.1075 269° West 505 581 32,000  Level FlightAware Transoceanic
Thu 12:59:00 AM 47.1019 -166.3127 269° West 505 581 32,000  Level FlightAware Transoceanic
Thu 01:00:00 AM 47.0994 -166.5179 269° West 505 581 32,000  Level FlightAware Transoceanic
Thu 01:01:00 AM 47.0965 -166.7230 269° West 505 581 32,000  Level FlightAware Transoceanic
Thu 01:02:00 AM 47.0932 -166.9281 269° West 505 581 32,000  Level FlightAware Transoceanic
Thu 01:03:00 AM 47.0875 -166.9657 269° West 482 555 32,000  Level FlightAware Transoceanic
Thu 01:04:00 AM 47.0841 -167.1683 269° West 482 555 32,000  Level FlightAware Transoceanic
Thu 01:05:00 AM 47.0804 -167.3708 268° West 482 555 32,000  Level FlightAware Transoceanic
Thu 01:06:00 AM 47.0764 -167.5733 268° West 482 555 32,000  Level FlightAware Transoceanic
Thu 01:07:00 AM 47.0720 -167.7758 268° West 482 555 32,000  Level FlightAware Transoceanic
Thu 01:08:00 AM 47.0672 -167.9782 268° West 482 555 32,000  Level FlightAware Transoceanic
Thu 01:09:00 AM 47.0621 -168.1806 268° West 482 555 32,000  Level FlightAware Transoceanic
Thu 01:10:00 AM 47.0566 -168.3829 268° West 482 555 32,000  Level FlightAware Transoceanic
Thu 01:11:00 AM 47.0508 -168.5853 268° West 482 555 32,000  Level FlightAware Transoceanic
Thu 01:12:00 AM 47.0446 -168.7875 267° West 482 555 32,000  Level FlightAware Transoceanic
Thu 01:13:00 AM 47.0381 -168.9897 267° West 482 555 32,000  Level FlightAware Transoceanic
Thu 01:14:00 AM 47.0312 -169.1919 267° West 482 555 32,000  Level FlightAware Transoceanic
Thu 01:15:00 AM 47.0239 -169.3940 267° West 482 555 32,000  Level FlightAware Transoceanic
Thu 01:16:00 AM 47.0163 -169.5961 267° West 482 555 32,000  Level FlightAware Transoceanic
Thu 01:17:00 AM 47.0083 -169.7981 267° West 482 555 32,000  Level FlightAware Transoceanic
Thu 01:18:00 AM 47.0000 -170.0000 274° West 482 555 32,000  Level FlightAware Transoceanic
Thu 01:19:00 AM 47.0084 -170.1956 274° West 482 555 32,000 1,182 Level FlightAware Transoceanic
Thu 01:19:06 AM 47.0000 -170.0000 274° West 474 545 33,300  Climbing Oakland Oceanic (ODAPS)
Thu 01:20:00 AM 47.0164 -170.3912 273° West 482 555 32,000 -684 Descending FlightAware Transoceanic
Thu 01:21:00 AM 47.0241 -170.5869 273° West 482 555 32,000  Level FlightAware Transoceanic
Thu 01:22:00 AM 47.0315 -170.7827 273° West 482 555 32,000  Level FlightAware Transoceanic
Thu 01:23:00 AM 47.0385 -170.9785 273° West 482 555 32,000 1,024 Level FlightAware Transoceanic
Thu 01:23:22 AM 47.0333 -170.8667 273° West 464 534 33,400  Climbing Oakland Oceanic (ODAPS)
Thu 01:24:00 AM 47.0452 -171.1743 273° West 482 555 32,000 -61 Descending FlightAware Transoceanic
Thu 01:25:00 AM 47.0444 -171.1517 273° West 474 545 33,300 650 Climbing FlightAware Transoceanic
Thu 01:26:00 AM 47.0507 -171.3438 273° West 474 545 33,300  Level FlightAware Transoceanic
Thu 01:27:00 AM 47.0567 -171.5360 273° West 474 545 33,300  Level FlightAware Transoceanic
Thu 01:28:00 AM 47.0623 -171.7282 272° West 474 545 33,300 50 Level FlightAware Transoceanic
Thu 01:29:00 AM 47.0683 -171.9840 272° West 464 534 33,400 50 Climbing FlightAware Transoceanic
Thu 01:30:00 AM 47.0731 -172.1703 272° West 464 534 33,400  Level FlightAware Transoceanic
Thu 01:31:00 AM 47.0775 -172.3567 272° West 464 534 33,400  Level FlightAware Transoceanic
Thu 01:32:00 AM 47.0817 -172.5431 272° West 464 534 33,400  Level FlightAware Transoceanic
Thu 01:33:00 AM 47.0855 -172.7295 272° West 464 534 33,400  Level FlightAware Transoceanic
Thu 01:34:00 AM 47.0891 -172.9160 272° West 464 534 33,400  Level FlightAware Transoceanic
Thu 01:35:00 AM 47.0924 -173.1025 271° West 464 534 33,400  Level FlightAware Transoceanic
Thu 01:36:00 AM 47.0953 -173.2890 271° West 464 534 33,400  Level FlightAware Transoceanic
Thu 01:37:00 AM 47.0980 -173.4755 271° West 464 534 33,400  Level FlightAware Transoceanic
Thu 01:38:00 AM 47.1003 -173.6621 271° West 464 534 33,400  Level FlightAware Transoceanic
Thu 01:39:00 AM 47.1024 -173.8486 271° West 464 534 33,400  Level FlightAware Transoceanic
Thu 01:40:00 AM 47.1041 -174.0352 271° West 464 534 33,400  Level FlightAware Transoceanic
Thu 01:41:00 AM 47.1055 -174.2218 271° West 464 534 33,400  Level FlightAware Transoceanic
Thu 01:42:00 AM 47.1067 -174.4084 270° West 464 534 33,400  Level FlightAware Transoceanic
Thu 01:43:00 AM 47.1075 -174.5950 270° West 464 534 33,400  Level FlightAware Transoceanic
Thu 01:44:00 AM 47.1081 -174.7816 270° West 464 534 33,400  Level FlightAware Transoceanic
Thu 01:45:00 AM 47.1083 -174.9682 270° West 464 534 33,400  Level FlightAware Transoceanic
Thu 01:46:00 AM 47.1082 -175.1548 270° West 464 534 33,400  Level FlightAware Transoceanic
Thu 01:47:00 AM 47.1078 -175.3415 270° West 464 534 33,400  Level FlightAware Transoceanic
Thu 01:48:00 AM 47.1071 -175.5281 270° West 464 534 33,400  Level FlightAware Transoceanic
Thu 01:49:00 AM 47.1062 -175.7147 269° West 464 534 33,400  Level FlightAware Transoceanic
Thu 01:50:00 AM 47.1049 -175.9013 269° West 464 534 33,400 286 Level FlightAware Transoceanic
Thu 01:50:03 AM 47.1000 -175.9000 269° West 463 533 33,700  Climbing Oakland Oceanic (ODAPS)
Thu 01:51:00 AM 47.1033 -176.0878 269° West 464 534 33,400 -154 Descending FlightAware Transoceanic
Thu 01:52:00 AM 47.1014 -176.2744 269° West 464 534 33,400  Level FlightAware Transoceanic
Thu 01:53:00 AM 47.0992 -176.4610 269° West 464 534 33,400  Level FlightAware Transoceanic
Thu 01:54:00 AM 47.0967 -176.6475 269° West 464 534 33,400  Level FlightAware Transoceanic
Thu 01:55:00 AM 47.0939 -176.8340 269° West 464 534 33,400 150 Level FlightAware Transoceanic
Thu 01:56:00 AM 47.0872 -177.0195 269° West 463 533 33,700 150 Climbing FlightAware Transoceanic
Thu 01:57:00 AM 47.0841 -177.2061 268° West 463 533 33,700  Level FlightAware Transoceanic
Thu 01:58:00 AM 47.0806 -177.3926 268° West 463 533 33,700  Level FlightAware Transoceanic
Thu 01:59:00 AM 47.0768 -177.5791 268° West 463 533 33,700  Level FlightAware Transoceanic
Thu 02:00:00 AM 47.0727 -177.7655 268° West 463 533 33,700  Level FlightAware Transoceanic
Thu 02:01:00 AM 47.0683 -177.9519 268° West 463 533 33,700  Level FlightAware Transoceanic
Thu 02:02:00 AM 47.0636 -178.1383 268° West 463 533 33,700  Level FlightAware Transoceanic
Thu 02:03:00 AM 47.0586 -178.3247 268° West 463 533 33,700  Level FlightAware Transoceanic
Thu 02:04:00 AM 47.0533 -178.5110 268° West 463 533 33,700  Level FlightAware Transoceanic
Thu 02:05:00 AM 47.0477 -178.6973 267° West 463 533 33,700  Level FlightAware Transoceanic
Thu 02:06:00 AM 47.0418 -178.8835 267° West 463 533 33,700  Level FlightAware Transoceanic
Thu 02:07:00 AM 47.0356 -179.0697 267° West 463 533 33,700  Level FlightAware Transoceanic
Thu 02:08:00 AM 47.0291 -179.2559 267° West 463 533 33,700  Level FlightAware Transoceanic
Thu 02:09:00 AM 47.0223 -179.4420 267° West 463 533 33,700  Level FlightAware Transoceanic
Thu 02:10:00 AM 47.0151 -179.6280 267° West 463 533 33,700  Level FlightAware Transoceanic
Thu 02:11:00 AM 47.0077 -179.8140 267° West 463 533 33,700 176 Level FlightAware Transoceanic
Thu 02:11:42 AM 47.0000 180.0000 258° West 470 541 34,000  Climbing Oakland Oceanic (ODAPS)
Thu 02:12:00 AM 47.0000 -180.0000 258° West 463 533 33,700 -231 Descending FlightAware Transoceanic
Thu 02:13:00 AM 46.9700 179.8012 257° West 463 533 33,700  Level FlightAware Transoceanic
Thu 02:14:00 AM 46.9396 179.6026 257° West 463 533 33,700  Level FlightAware Transoceanic
Thu 02:15:00 AM 46.9088 179.4043 257° West 463 533 33,700  Level FlightAware Transoceanic
Thu 02:16:00 AM 46.8778 179.2062 257° West 463 533 33,700 233 Level FlightAware Transoceanic
Thu 02:16:43 AM 46.8500 179.0500 257° West 467 537 34,100 300 Climbing Oakland Oceanic (ODAPS)
Thu 02:17:00 AM 46.8282 178.8953 257° West 470 541 34,000 -78 Descending FlightAware Transoceanic
Thu 02:18:00 AM 46.7986 178.7119 257° West 470 541 34,000  Level FlightAware Transoceanic
Thu 02:19:00 AM 46.7686 178.5287 257° West 470 541 34,000  Level FlightAware Transoceanic
Thu 02:20:00 AM 46.7384 178.3457 256° West 470 541 34,000  Level FlightAware Transoceanic
Thu 02:21:00 AM 46.7078 178.1629 256° West 470 541 34,000  Level FlightAware Transoceanic
Thu 02:22:00 AM 46.6770 177.9803 256° West 470 541 34,000 50 Level FlightAware Transoceanic
Thu 02:23:00 AM 46.6664 177.9332 256° West 467 537 34,100 50 Climbing FlightAware Transoceanic
Thu 02:24:00 AM 46.6347 177.7478 256° West 467 537 34,100  Level FlightAware Transoceanic
Thu 02:25:00 AM 46.6027 177.5626 256° West 467 537 34,100  Level FlightAware Transoceanic
Thu 02:26:00 AM 46.5705 177.3776 256° West 467 537 34,100  Level FlightAware Transoceanic
Thu 02:27:00 AM 46.5379 177.1929 256° West 467 537 34,100  Level FlightAware Transoceanic
Thu 02:28:00 AM 46.5051 177.0084 255° West 467 537 34,100  Level FlightAware Transoceanic
Thu 02:29:00 AM 46.4719 176.8241 255° West 467 537 34,100  Level FlightAware Transoceanic
Thu 02:30:00 AM 46.4385 176.6400 255° West 467 537 34,100  Level FlightAware Transoceanic
Thu 02:31:00 AM 46.4048 176.4562 255° West 467 537 34,100  Level FlightAware Transoceanic
Thu 02:32:00 AM 46.3707 176.2726 255° West 467 537 34,100  Level FlightAware Transoceanic
Thu 02:33:00 AM 46.3364 176.0892 255° West 467 537 34,100  Level FlightAware Transoceanic
Thu 02:34:00 AM 46.3018 175.9061 255° West 467 537 34,100  Level FlightAware Transoceanic
Thu 02:35:00 AM 46.2668 175.7232 254° West 467 537 34,100  Level FlightAware Transoceanic
Thu 02:36:00 AM 46.2317 175.5405 254° West 467 537 34,100  Level FlightAware Transoceanic
Thu 02:37:00 AM 46.1962 175.3580 254° West 467 537 34,100  Level FlightAware Transoceanic
Thu 02:38:00 AM 46.1604 175.1758 254° West 467 537 34,100  Level FlightAware Transoceanic
Thu 02:39:00 AM 46.1243 174.9939 254° West 467 537 34,100  Level FlightAware Transoceanic
Thu 02:40:00 AM 46.0879 174.8121 254° West 467 537 34,100  Level FlightAware Transoceanic
Thu 02:41:00 AM 46.0513 174.6306 254° West 467 537 34,100  Level FlightAware Transoceanic
Thu 02:42:00 AM 46.0144 174.4494 254° West 467 537 34,100  Level FlightAware Transoceanic
Thu 02:43:00 AM 45.9771 174.2684 253° West 467 537 34,100 214 Level FlightAware Transoceanic
Thu 02:43:24 AM 45.9667 174.1833 253° West 477 549 34,400  Climbing Oakland Oceanic (ODAPS)
Thu 02:44:00 AM 45.9396 174.0876 253° West 467 537 34,100 -188 Descending FlightAware Transoceanic
Thu 02:45:00 AM 45.9018 173.9071 253° West 467 537 34,100  Level FlightAware Transoceanic
Thu 02:46:00 AM 45.8638 173.7268 253° West 467 537 34,100  Level FlightAware Transoceanic
Thu 02:47:00 AM 45.8254 173.5468 253° West 467 537 34,100  Level FlightAware Transoceanic
Thu 02:48:00 AM 45.7868 173.3670 253° West 467 537 34,100  Level FlightAware Transoceanic
Thu 02:49:00 AM 45.7478 173.1875 253° West 467 537 34,100 150 Level FlightAware Transoceanic
Thu 02:50:00 AM 45.7006 172.9485 252° West 477 549 34,400 150 Climbing FlightAware Transoceanic
Thu 02:51:00 AM 45.6615 172.7730 252° West 477 549 34,400  Level FlightAware Transoceanic
Thu 02:52:00 AM 45.6221 172.5978 252° West 477 549 34,400  Level FlightAware Transoceanic
Thu 02:53:00 AM 45.5825 172.4229 252° West 477 549 34,400  Level FlightAware Transoceanic
Thu 02:54:00 AM 45.5426 172.2482 252° West 477 549 34,400  Level FlightAware Transoceanic
Thu 02:55:00 AM 45.5024 172.0737 252° West 477 549 34,400  Level FlightAware Transoceanic
Thu 02:56:00 AM 45.4620 171.8995 252° West 477 549 34,400  Level FlightAware Transoceanic
Thu 02:57:00 AM 45.4213 171.7256 251° West 477 549 34,400  Level FlightAware Transoceanic
Thu 02:58:00 AM 45.3803 171.5519 251° West 477 549 34,400  Level FlightAware Transoceanic
Thu 02:59:00 AM 45.3391 171.3784 251° West 477 549 34,400  Level FlightAware Transoceanic
Thu 03:00:00 AM 45.2976 171.2052 251° West 477 549 34,400  Level FlightAware Transoceanic
Thu 03:01:00 AM 45.2559 171.0323 251° West 477 549 34,400  Level FlightAware Transoceanic
Thu 03:02:00 AM 45.2139 170.8596 251° West 477 549 34,400  Level FlightAware Transoceanic
Thu 03:03:00 AM 45.1716 170.6871 251° West 477 549 34,400  Level FlightAware Transoceanic
Thu 03:04:00 AM 45.1291 170.5150 251° West 477 549 34,400  Level FlightAware Transoceanic
Thu 03:05:00 AM 45.0863 170.3431 251° West 477 549 34,400  Level FlightAware Transoceanic
Thu 03:06:00 AM 45.0433 170.1714 250° West 477 549 34,400 290 Level FlightAware Transoceanic
Thu 03:06:02 AM 45.0000 170.0000 251° West 495 570 34,700  Climbing Oakland Oceanic (ODAPS)
Thu 03:07:00 AM 45.0000 170.0000 251° West 477 549 34,400 -153 Descending FlightAware Transoceanic
Thu 03:08:00 AM 44.9526 169.8059 251° West 477 549 34,400  Level FlightAware Transoceanic
Thu 03:09:00 AM 44.9049 169.6122 251° West 477 549 34,400  Level FlightAware Transoceanic
Thu 03:10:00 AM 44.8569 169.4187 251° West 477 549 34,400 286 Level FlightAware Transoceanic
Thu 03:10:03 AM 44.8000 169.2167 251° West 496 571 34,700  Climbing Oakland Oceanic (ODAPS)
Thu 03:11:00 AM 44.8086 169.2256 250° West 477 549 34,400  Descending FlightAware Transoceanic
Thu 03:12:00 AM 44.7264 168.9011 250° West 495 570 34,700 150 Climbing FlightAware Transoceanic
Thu 03:13:00 AM 44.6798 168.7190 250° West 495 570 34,700  Level FlightAware Transoceanic
Thu 03:14:00 AM 44.6328 168.5371 250° West 495 570 34,700  Level FlightAware Transoceanic
Thu 03:15:00 AM 44.5856 168.3556 250° West 495 570 34,700  Level FlightAware Transoceanic
Thu 03:16:00 AM 44.5211 168.1309 250° West 496 571 34,700  Level FlightAware Transoceanic
Thu 03:17:00 AM 44.4736 167.9510 250° West 496 571 34,700  Level FlightAware Transoceanic
Thu 03:18:00 AM 44.4259 167.7713 250° West 496 571 34,700  Level FlightAware Transoceanic
Thu 03:19:00 AM 44.3778 167.5920 249° West 496 571 34,700  Level FlightAware Transoceanic
Thu 03:20:00 AM 44.3295 167.4129 249° West 496 571 34,700  Level FlightAware Transoceanic
Thu 03:21:00 AM 44.2809 167.2341 249° West 496 571 34,700  Level FlightAware Transoceanic
Thu 03:22:00 AM 44.2320 167.0557 249° West 496 571 34,700  Level FlightAware Transoceanic
Thu 03:23:00 AM 44.1829 166.8775 249° West 496 571 34,700  Level FlightAware Transoceanic
Thu 03:24:00 AM 44.1334 166.6996 249° West 496 571 34,700  Level FlightAware Transoceanic
Thu 03:25:00 AM 44.0837 166.5221 249° West 496 571 34,700  Level FlightAware Transoceanic
Thu 03:26:00 AM 44.0337 166.3448 249° West 496 571 34,700  Level FlightAware Transoceanic
Thu 03:27:00 AM 43.9835 166.1678 248° West 496 571 34,700  Level FlightAware Transoceanic
Thu 03:28:00 AM 43.9329 165.9911 248° West 496 571 34,700  Level FlightAware Transoceanic
Thu 03:29:00 AM 43.8821 165.8148 248° West 496 571 34,700  Level FlightAware Transoceanic
Thu 03:30:00 AM 43.8311 165.6387 248° West 496 571 34,700  Level FlightAware Transoceanic
Thu 03:31:00 AM 43.7797 165.4629 248° West 496 571 34,700  Level FlightAware Transoceanic
Thu 03:32:00 AM 43.7281 165.2874 248° West 496 571 34,700  Level FlightAware Transoceanic
Thu 03:33:00 AM 43.6763 165.1123 248° West 496 571 34,700  Level FlightAware Transoceanic
Thu 03:34:00 AM 43.6241 164.9374 248° West 496 571 34,700  Level FlightAware Transoceanic
Thu 03:35:00 AM 43.5717 164.7629 247° West 496 571 34,700  Level FlightAware Transoceanic
Thu 03:36:00 AM 43.5190 164.5886 247° West 496 571 34,700  Level FlightAware Transoceanic
Thu 03:37:00 AM 43.4661 164.4147 247° West 496 571 34,700  Level FlightAware Transoceanic
Thu 03:38:00 AM 43.4129 164.2410 247° West 496 571 34,700  Level FlightAware Transoceanic
Thu 03:39:00 AM 43.3594 164.0677 247° West 496 571 34,700  Level FlightAware Transoceanic
Thu 03:40:00 AM 43.3057 163.8947 247° West 496 571 34,700  Level FlightAware Transoceanic
Thu 03:41:00 AM 43.2517 163.7219 247° West 496 571 34,700  Level FlightAware Transoceanic
Thu 03:42:00 AM 43.1974 163.5495 247° West 496 571 34,700  Level FlightAware Transoceanic
Thu 03:43:00 AM 43.1429 163.3774 246° West 496 571 34,700  Level FlightAware Transoceanic
Thu 03:44:00 AM 43.0882 163.2056 246° West 496 571 34,700  Level FlightAware Transoceanic
Thu 03:45:00 AM 43.0331 163.0341 246° West 496 571 34,700  Level FlightAware Transoceanic
Thu 03:46:00 AM 42.9779 162.8629 246° West 496 571 34,700  Level FlightAware Transoceanic
Thu 03:47:00 AM 42.9223 162.6920 246° West 496 571 34,700  Level FlightAware Transoceanic
Thu 03:48:00 AM 42.8666 162.5215 246° West 496 571 34,700  Level FlightAware Transoceanic
Thu 03:49:00 AM 42.8105 162.3512 246° West 496 571 34,700  Level FlightAware Transoceanic
Thu 03:50:00 AM 42.7542 162.1812 246° West 496 571 34,700  Level FlightAware Transoceanic
Thu 03:51:00 AM 42.6977 162.0116 246° West 496 571 34,700  Level FlightAware Transoceanic
Thu 03:52:00 AM 42.6409 161.8422 245° Southwest 496 571 34,700  Level FlightAware Transoceanic
Thu 03:53:00 AM 42.5839 161.6732 245° Southwest 496 571 34,700  Level FlightAware Transoceanic
Thu 03:54:00 AM 42.5266 161.5045 245° Southwest 496 571 34,700  Level FlightAware Transoceanic
Thu 03:55:00 AM 42.4691 161.3361 245° Southwest 496 571 34,700  Level FlightAware Transoceanic
Thu 03:56:00 AM 42.4113 161.1680 245° Southwest 496 571 34,700  Level FlightAware Transoceanic
Thu 03:57:00 AM 42.3532 161.0002 245° Southwest 496 571 34,700  Level FlightAware Transoceanic
Thu 03:58:00 AM 42.2950 160.8327 245° Southwest 496 571 34,700  Level FlightAware Transoceanic
Thu 03:59:00 AM 42.2365 160.6656 245° Southwest 496 571 34,700  Level FlightAware Transoceanic
Thu 04:00:00 AM 42.1777 160.4987 245° Southwest 496 571 34,700  Level FlightAware Transoceanic
Thu 04:01:00 AM 42.1187 160.3322 244° Southwest 496 571 34,700  Level FlightAware Transoceanic
Thu 04:02:00 AM 42.0595 160.1659 244° Southwest 496 571 34,700  Level FlightAware Transoceanic
Thu 04:03:00 AM 42.0000 160.0000 253° West 496 571 34,700  Level FlightAware Transoceanic
Thu 04:04:00 AM 41.9579 159.8143 253° West 496 571 34,700  Level FlightAware Transoceanic
Thu 04:05:00 AM 41.9155 159.6289 253° West 496 571 34,700  Level FlightAware Transoceanic
Thu 04:06:00 AM 41.8729 159.4437 253° West 496 571 34,700  Level FlightAware Transoceanic
Thu 04:07:00 AM 41.8299 159.2588 253° West 496 571 34,700  Level FlightAware Transoceanic
Thu 04:08:00 AM 41.7866 159.0741 252° West 496 571 34,700  Level FlightAware Transoceanic
Thu 04:09:00 AM 41.7430 158.8897 252° West 496 571 34,700  Level FlightAware Transoceanic
Thu 04:10:00 AM 41.6992 158.7055 252° West 496 571 34,700  Level FlightAware Transoceanic
Thu 04:11:00 AM 41.6550 158.5216 252° West 496 571 34,700  Level FlightAware Transoceanic
Thu 04:12:00 AM 41.6106 158.3379 252° West 496 571 34,700  Level FlightAware Transoceanic
Thu 04:13:00 AM 41.5658 158.1545 252° West 496 571 34,700  Level FlightAware Transoceanic
Thu 04:14:00 AM 41.5208 157.9714 252° West 496 571 34,700  Level FlightAware Transoceanic
Thu 04:15:00 AM 41.4755 157.7885 252° West 496 571 34,700  Level FlightAware Transoceanic
Thu 04:16:00 AM 41.4299 157.6058 252° West 496 571 34,700  Level FlightAware Transoceanic
Thu 04:17:00 AM 41.3840 157.4234 251° West 496 571 34,700  Level FlightAware Transoceanic
Thu 04:18:00 AM 41.3378 157.2413 251° West 496 571 34,700  Level FlightAware Transoceanic
Thu 04:19:00 AM 41.2913 157.0594 251° West 496 571 34,700  Level FlightAware Transoceanic
Thu 04:20:00 AM 41.2445 156.8778 251° West 496 571 34,700  Level FlightAware Transoceanic
Thu 04:21:00 AM 41.1975 156.6964 251° West 496 571 34,700  Level FlightAware Transoceanic
Thu 04:22:00 AM 41.1502 156.5153 251° West 496 571 34,700  Level FlightAware Transoceanic
Thu 04:23:00 AM 41.1026 156.3345 251° West 496 571 34,700  Level FlightAware Transoceanic
Thu 04:24:00 AM 41.0547 156.1539 251° West 496 571 34,700  Level FlightAware Transoceanic
Thu 04:25:00 AM 41.0065 155.9736 250° West 496 571 34,700  Level FlightAware Transoceanic
Thu 04:26:00 AM 40.9580 155.7936 250° West 496 571 34,700  Level FlightAware Transoceanic
Thu 04:27:00 AM 40.9093 155.6138 250° West 496 571 34,700  Level FlightAware Transoceanic
Thu 04:28:00 AM 40.8603 155.4343 250° West 496 571 34,700  Level FlightAware Transoceanic
Thu 04:29:00 AM 40.8110 155.2550 250° West 496 571 34,700  Level FlightAware Transoceanic
Thu 04:30:00 AM 40.7614 155.0761 250° West 496 571 34,700  Level FlightAware Transoceanic
Thu 04:31:00 AM 40.7116 154.8974 250° West 496 571 34,700  Level FlightAware Transoceanic
Thu 04:32:00 AM 40.6614 154.7189 250° West 496 571 34,700  Level FlightAware Transoceanic
Thu 04:33:00 AM 40.6110 154.5407 250° West 496 571 34,700  Level FlightAware Transoceanic
Thu 04:34:00 AM 40.5604 154.3628 249° West 496 571 34,700  Level FlightAware Transoceanic
Thu 04:35:00 AM 40.5094 154.1852 249° West 496 571 34,700  Level FlightAware Transoceanic
Thu 04:36:00 AM 40.4582 154.0078 249° West 496 571 34,700  Level FlightAware Transoceanic
Thu 04:37:00 AM 40.4067 153.8307 249° West 496 571 34,700  Level FlightAware Transoceanic
Thu 04:38:00 AM 40.3550 153.6539 249° West 496 571 34,700  Level FlightAware Transoceanic
Thu 04:39:00 AM 40.3030 153.4774 249° West 496 571 34,700  Level FlightAware Transoceanic
Thu 04:40:00 AM 40.2507 153.3011 249° West 496 571 34,700  Level FlightAware Transoceanic
Thu 04:41:00 AM 40.1981 153.1251 249° West 496 571 34,700  Level FlightAware Transoceanic
Thu 04:42:00 AM 40.1453 152.9493 248° West 496 571 34,700  Level FlightAware Transoceanic
Thu 04:43:00 AM 40.0922 152.7739 248° West 496 571 34,700  Level FlightAware Transoceanic
Thu 04:44:00 AM 40.0388 152.5987 248° West 496 571 34,700  Level FlightAware Transoceanic
Thu 04:45:00 AM 39.9852 152.4238 248° West 496 571 34,700  Level FlightAware Transoceanic
Thu 04:46:00 AM 39.9314 152.2492 248° West 496 571 34,700  Level FlightAware Transoceanic
Thu 04:47:00 AM 39.8772 152.0748 248° West 496 571 34,700  Level FlightAware Transoceanic
Thu 04:48:00 AM 39.8228 151.9007 248° West 496 571 34,700  Level FlightAware Transoceanic
Thu 04:49:00 AM 39.7682 151.7269 248° West 496 571 34,700  Level FlightAware Transoceanic
Thu 04:50:00 AM 39.7132 151.5534 248° West 496 571 34,700  Level FlightAware Transoceanic
Thu 04:51:00 AM 39.6581 151.3801 247° West 496 571 34,700  Level FlightAware Transoceanic
Thu 04:52:00 AM 39.6026 151.2071 247° West 496 571 34,700  Level FlightAware Transoceanic
Thu 04:53:00 AM 39.5469 151.0344 247° West 496 571 34,700  Level FlightAware Transoceanic
Thu 04:54:00 AM 39.4910 150.8620 247° West 496 571 34,700  Level FlightAware Transoceanic
Thu 04:55:00 AM 39.4348 150.6899 247° West 496 571 34,700  Level FlightAware Transoceanic
Thu 04:56:00 AM 39.3783 150.5180 247° West 496 571 34,700  Level FlightAware Transoceanic
Thu 04:57:00 AM 39.3216 150.3464 247° West 496 571 34,700  Level FlightAware Transoceanic
Thu 04:58:00 AM 39.2647 150.1751 247° West 496 571 34,700  Level FlightAware Transoceanic
Thu 04:59:00 AM 39.2075 150.0041 247° West 496 571 34,700 38 Level FlightAware Transoceanic
Thu 05:00:00 AM 39.1578 149.8419 248° West  Level FlightAware Approximate
Thu 05:01:00 AM 39.1078 149.6800 248° West  Level FlightAware Approximate
Thu 05:02:00 AM 39.0979 149.6990 240° Southwest  Level FlightAware Approximate
Thu 05:03:00 AM 39.0307 149.5480 240° Southwest  Level FlightAware Approximate
Thu 05:04:00 AM 38.9634 149.3972 240° Southwest  Level FlightAware Approximate
Thu 05:05:00 AM 38.8958 149.2467 240° Southwest  Level FlightAware Approximate
Thu 05:06:00 AM 38.8280 149.0965 240° Southwest  Level FlightAware Approximate
Thu 05:07:00 AM 38.7601 148.9465 240° Southwest  Level FlightAware Approximate
Thu 05:08:00 AM 38.6919 148.7969 240° Southwest  Level FlightAware Approximate
Thu 05:09:00 AM 38.6236 148.6475 240° Southwest  Level FlightAware Approximate
Thu 05:10:00 AM 38.5551 148.4985 240° Southwest  Level FlightAware Approximate
Thu 05:11:00 AM 38.4864 148.3497 239° Southwest  Level FlightAware Approximate
Thu 05:12:00 AM 38.4175 148.2012 239° Southwest  Level FlightAware Approximate
Thu 05:13:00 AM 38.3484 148.0529 239° Southwest  Level FlightAware Approximate
Thu 05:14:00 AM 38.2791 147.9050 239° Southwest  Level FlightAware Approximate
Thu 05:15:00 AM 38.2097 147.7574 239° Southwest  Level FlightAware Approximate
Thu 05:16:00 AM 38.1400 147.6100 239° Southwest  Level FlightAware Approximate
Thu 05:17:00 AM 38.0702 147.4629 239° Southwest  Level FlightAware Approximate
Thu 05:18:00 AM 38.0002 147.3161 239° Southwest  Level FlightAware Approximate
Thu 05:19:00 AM 37.9300 147.1696 239° Southwest  Level FlightAware Approximate
Thu 05:20:00 AM 37.8596 147.0233 239° Southwest  Level FlightAware Approximate
Thu 05:21:00 AM 37.7891 146.8773 239° Southwest  Level FlightAware Approximate
Thu 05:22:00 AM 37.7183 146.7316 238° Southwest  Level FlightAware Approximate
Thu 05:23:00 AM 37.6474 146.5862 238° Southwest  Level FlightAware Approximate
Thu 05:24:00 AM 37.5764 146.4411 238° Southwest  Level FlightAware Approximate
Thu 05:25:00 AM 37.5051 146.2962 238° Southwest  Level FlightAware Approximate
Thu 05:26:00 AM 37.4336 146.1517 238° Southwest  Level FlightAware Approximate
Thu 05:27:00 AM 37.3620 146.0073 238° Southwest  Level FlightAware Approximate
Thu 05:28:00 AM 37.2902 145.8633 238° Southwest  Level FlightAware Approximate
Thu 05:29:00 AM 37.2183 145.7195 238° Southwest  Level FlightAware Approximate
Thu 05:30:00 AM 37.1744 145.5632 263° West  Level FlightAware Approximate
Thu 05:31:00 AM 37.1569 145.3951 263° West  Level FlightAware Approximate
Thu 05:32:00 AM 37.1391 145.2269 262° West  Level FlightAware Approximate
Thu 05:32:09 AM 37.1860 145.6380 262° West 469 540 36,000  Level FlightAware ADS-B
Thu 05:32:45 AM 37.1820 145.5300 267° West 36,000  Level FlightAware ADS-B
Thu 05:34:45 AM 37.1470 145.2090 262° West 458 527 36,000  Level FlightAware ADS-B
Thu 05:35:26 AM 37.1350 145.1050 262° West 457 526 36,000  Level FlightAware ADS-B
Thu 05:36:05 AM 37.1230 145.0010 262° West 460 529 36,000  Level FlightAware ADS-B
Thu 05:36:45 AM 37.1110 144.8970 262° West 460 529 36,000  Level FlightAware ADS-B
Thu 05:37:30 AM 37.0970 144.7770 262° West 459 528 36,000  Level FlightAware ADS-B
Thu 05:38:13 AM 37.0850 144.6720 262° West 460 529 36,000  Level FlightAware ADS-B
Thu 05:38:55 AM 37.0710 144.5530 262° West 461 531 36,000  Level FlightAware ADS-B
Thu 05:39:35 AM 37.0580 144.4480 261° West 460 529 36,000  Level FlightAware ADS-B
Thu 05:40:15 AM 37.0460 144.3430 262° West 459 528 36,000  Level FlightAware ADS-B
Thu 05:41:00 AM 37.0320 144.2340 261° West 457 526 36,000  Level FlightAware ADS-B
Thu 05:41:45 AM 37.0170 144.1070 262° West 458 527 36,000  Level FlightAware ADS-B
Thu 05:42:20 AM 37.0060 144.0170 261° West 457 526 36,000  Level FlightAware ADS-B
Thu 05:43:05 AM 36.9970 143.8980 265° West 456 525 36,000  Level FlightAware ADS-B
Thu 05:43:50 AM 36.9910 143.7790 266° West 455 524 36,000  Level FlightAware ADS-B
Thu 05:44:28 AM 36.9870 143.7000 266° West 456 525 36,000  Level FlightAware ADS-B
Thu 05:45:25 AM 36.9770 143.5350 266° West 455 524 36,000  Level FlightAware ADS-B
Thu 05:46:21 AM 36.9680 143.3870 266° West 454 522 36,000  Level FlightAware ADS-B
Thu 05:47:05 AM 36.9610 143.2700 266° West 453 521 36,000  Level FlightAware ADS-B
Thu 05:47:35 AM 36.9560 143.1910 265° West 452 520 36,000  Level FlightAware ADS-B
Thu 05:48:20 AM 36.9490 143.0750 266° West 451 519 36,000  Level FlightAware ADS-B
Thu 05:49:00 AM 36.9420 142.9710 265° West 450 518 36,000  Level FlightAware ADS-B
Thu 05:49:40 AM 36.9360 142.8670 266° West 450 518 36,000  Level FlightAware ADS-B
Thu 05:50:20 AM 36.9290 142.7720 265° West 450 518 36,000  Level FlightAware ADS-B
Thu 05:51:00 AM 36.9220 142.6630 265° West 448 516 36,000  Level FlightAware ADS-B
Thu 05:51:45 AM 36.9140 142.5450 265° West 449 517 36,000  Level FlightAware ADS-B
Thu 05:52:25 AM 36.9070 142.4410 265° West 448 516 36,000  Level FlightAware ADS-B
Thu 05:53:05 AM 36.8970 142.3400 263° West 448 516 36,000  Level FlightAware ADS-B
Thu 05:53:50 AM 36.8730 142.2270 255° West 448 516 36,000  Level FlightAware ADS-B
Thu 05:54:25 AM 36.8510 142.1390 253° West 448 516 36,000  Level FlightAware ADS-B
Thu 05:55:05 AM 36.8270 142.0420 253° West 446 513 36,000  Level FlightAware ADS-B
Thu 05:55:50 AM 36.7990 141.9320 252° West 443 510 36,000  Level FlightAware ADS-B
Thu 05:56:40 AM 36.7680 141.8100 252° West 441 507 36,000  Level FlightAware ADS-B
Thu 05:57:20 AM 36.7430 141.7130 252° West 442 509 36,000  Level FlightAware ADS-B
Thu 05:58:01 AM 36.7170 141.6160 252° West 444 511 36,000  Level FlightAware ADS-B
Thu 05:58:45 AM 36.6890 141.5050 253° West 444 511 36,000  Level FlightAware ADS-B
Thu 05:59:25 AM 36.6630 141.4070 252° West 445 512 36,000  Level FlightAware ADS-B
Thu 06:00:10 AM 36.6340 141.2980 252° West 445 512 36,000  Level FlightAware ADS-B
Thu 06:00:50 AM 36.6090 141.2000 252° West 446 513 36,000  Level FlightAware ADS-B
Thu 06:01:35 AM 36.5790 141.0900 251° West 447 514 36,000  Level FlightAware ADS-B
Thu 06:02:15 AM 36.5530 140.9910 252° West 449 517 36,000  Level FlightAware ADS-B
Thu 06:02:55 AM 36.5270 140.8920 252° West 450 518 36,000  Level FlightAware ADS-B
Thu 06:03:40 AM 36.4970 140.7810 251° West 453 521 36,000  Level FlightAware ADS-B
Thu 06:04:20 AM 36.4710 140.6830 252° West 453 521 36,000  Level FlightAware ADS-B
Thu 06:05:00 AM 36.4440 140.5850 251° West 452 520 36,000  Level FlightAware ADS-B
Thu 06:05:45 AM 36.4140 140.4740 251° West 453 521 36,000  Level FlightAware ADS-B
Thu 06:06:25 AM 36.3890 140.3790 252° West 455 524 36,000  Level FlightAware ADS-B
Thu 06:07:10 AM 36.3580 140.2650 251° West 454 522 36,000  Level FlightAware ADS-B
Thu 06:07:50 AM 36.3320 140.1660 252° West 454 522 36,000  Level FlightAware ADS-B
Thu 06:08:30 AM 36.3050 140.0680 251° West 454 522 36,000  Level FlightAware ADS-B
Thu 06:09:10 AM 36.2760 139.9690 250° West 457 526 36,000  Level FlightAware ADS-B
Thu 06:09:57 AM 36.2320 139.8580 244° Southwest 459 528 36,000  Level FlightAware ADS-B
Thu 06:10:42 AM 36.1870 139.7520 242° Southwest 460 529 36,000  Level FlightAware ADS-B
Thu 06:11:26 AM 36.1440 139.6520 242° Southwest 459 528 36,000  Level FlightAware ADS-B
Thu 06:12:00 AM 36.1130 139.5790 242° Southwest 461 531 36,000  Level FlightAware ADS-B
Thu 06:12:38 AM 36.0720 139.4820 242° Southwest 458 527 36,000  Level FlightAware ADS-B
Thu 06:13:23 AM 36.0280 139.3790 242° Southwest 456 525 36,000 214 Level FlightAware ADS-B
Thu 06:14:02 AM 35.9890 139.2890 242° Southwest 456 525 36,300 786 Climbing FlightAware ADS-B
Thu 06:14:47 AM 35.9440 139.1850 242° Southwest 457 526 37,100 1,059 Climbing FlightAware ADS-B
Thu 06:15:27 AM 35.9050 139.0940 242° Southwest 456 525 37,800 643 Climbing FlightAware ADS-B
Thu 06:16:11 AM 35.8610 138.9920 242° Southwest 456 525 38,000 136 Climbing FlightAware ADS-B
Thu 06:16:55 AM 35.8170 138.8930 241° Southwest 455 524 38,000  Level FlightAware ADS-B
Thu 06:17:23 AM 35.7890 138.8280 242° Southwest 455 524 38,000  Level FlightAware ADS-B
Thu 06:18:11 AM 35.7420 138.7200 242° Southwest 454 522 38,000  Level FlightAware ADS-B
Thu 06:18:51 AM 35.7020 138.6280 242° Southwest 455 524 38,000  Level FlightAware ADS-B
Thu 06:19:23 AM 35.6700 138.5550 242° Southwest 457 526 38,000  Level FlightAware ADS-B
Thu 06:22:00 AM 35.4891 138.1813 239° Southwest  Level Estimated
Thu 06:23:00 AM 35.4196 138.0390 239° Southwest  Level Estimated
Thu 06:23:00 AM 35.4830 138.1300 239° Southwest 462 532 38,000  Level FlightAware ADS-B
Thu 06:24:14 AM 35.3930 137.9310 241° Southwest 457 526 38,000  Level FlightAware ADS-B
Thu 06:24:52 AM 35.3490 137.8330 241° Southwest 454 522 38,000  Level FlightAware ADS-B
Thu 06:25:32 AM 35.2950 137.7130 241° Southwest 458 527 38,000  Level FlightAware ADS-B
Thu 06:26:17 AM 35.2500 137.6100 242° Southwest 456 525 38,000  Level FlightAware ADS-B
Thu 06:26:58 AM 35.2120 137.5220 242° Southwest 455 524 38,000  Level FlightAware ADS-B
Thu 06:27:37 AM 35.1720 137.4300 242° Southwest 454 522 38,000  Level FlightAware ADS-B
Thu 06:28:23 AM 35.1270 137.3280 242° Southwest 454 522 38,000  Level FlightAware ADS-B
Thu 06:29:23 AM 35.0700 137.1950 242° Southwest 457 526 38,000  Level FlightAware ADS-B
Thu 06:30:05 AM 35.0280 137.1000 242° Southwest 454 522 38,000  Level FlightAware ADS-B
Thu 06:30:53 AM 34.9820 136.9950 242° Southwest 453 521 38,000  Level FlightAware ADS-B
Thu 06:31:22 AM 34.9540 136.9320 242° Southwest 452 520 38,000  Level FlightAware ADS-B
Thu 06:32:09 AM 34.9090 136.8320 241° Southwest 454 522 38,000  Level FlightAware ADS-B
Thu 06:32:50 AM 34.8610 136.7220 242° Southwest 456 525 38,000  Level FlightAware ADS-B
Thu 06:33:30 AM 34.8200 136.6290 242° Southwest 456 525 38,000  Level FlightAware ADS-B
Thu 06:34:10 AM 34.7790 136.5380 241° Southwest 455 524 38,000  Level FlightAware ADS-B
Thu 06:34:55 AM 34.7340 136.4380 241° Southwest 453 521 38,000  Level FlightAware ADS-B
Thu 06:35:35 AM 34.6950 136.3500 242° Southwest 454 522 38,000  Level FlightAware ADS-B
Thu 06:36:25 AM 34.6420 136.2340 241° Southwest 453 521 38,000  Level FlightAware ADS-B
Thu 06:37:10 AM 34.5990 136.1380 241° Southwest 451 519 38,000  Level FlightAware ADS-B
Thu 06:37:50 AM 34.5570 136.0440 242° Southwest 450 518 38,000  Level FlightAware ADS-B
Thu 06:38:25 AM 34.5220 135.9670 241° Southwest 450 518 38,000  Level FlightAware ADS-B
Thu 06:39:05 AM 34.4810 135.8770 241° Southwest 449 517 38,000  Level FlightAware ADS-B
Thu 06:39:50 AM 34.4350 135.7770 241° Southwest 449 517 38,000  Level FlightAware ADS-B
Thu 06:40:30 AM 34.3950 135.6880 241° Southwest 450 518 38,000  Level FlightAware ADS-B
Thu 06:41:10 AM 34.3540 135.6000 241° Southwest 450 518 38,000  Level FlightAware ADS-B
Thu 06:41:52 AM 34.3120 135.5080 241° Southwest 453 521 38,000  Level FlightAware ADS-B
Thu 06:42:37 AM 34.2660 135.4080 241° Southwest 453 521 38,000  Level FlightAware ADS-B
Thu 06:43:12 AM 34.2290 135.3270 241° Southwest 458 527 38,000  Level FlightAware ADS-B
Thu 06:43:52 AM 34.1880 135.2410 240° Southwest 459 528 38,000  Level FlightAware ADS-B
Thu 06:44:32 AM 34.1460 135.1490 241° Southwest 459 528 38,000  Level FlightAware ADS-B
Thu 06:45:12 AM 34.1050 135.0600 241° Southwest 460 529 38,000  Level FlightAware ADS-B
Thu 06:45:53 AM 34.0640 134.9730 240° Southwest 462 532 38,000  Level FlightAware ADS-B
Thu 06:46:32 AM 34.0210 134.8810 241° Southwest 457 526 38,000  Level FlightAware ADS-B
Thu 06:47:18 AM 33.9770 134.7820 242° Southwest 456 525 38,000  Level FlightAware ADS-B
Thu 06:48:02 AM 33.9310 134.6760 242° Southwest 457 526 38,000  Level FlightAware ADS-B
Thu 06:48:37 AM 33.8960 134.5990 241° Southwest 458 527 38,000  Level FlightAware ADS-B
Thu 06:49:22 AM 33.8510 134.4980 242° Southwest 458 527 38,000  Level FlightAware ADS-B
Thu 06:49:58 AM 33.8170 134.4240 241° Southwest 458 527 38,000  Level FlightAware ADS-B
Thu 06:50:40 AM 33.7710 134.3210 242° Southwest 463 533 38,000  Level FlightAware ADS-B
Thu 06:51:20 AM 33.7300 134.2310 241° Southwest 463 533 38,000  Level FlightAware ADS-B
Thu 06:52:05 AM 33.6870 134.1340 242° Southwest 463 533 38,000  Level FlightAware ADS-B
Thu 06:52:40 AM 33.6470 134.0470 241° Southwest 463 533 38,000  Level FlightAware ADS-B
Thu 06:53:20 AM 33.6090 133.9630 242° Southwest 462 532 38,000  Level FlightAware ADS-B
Thu 06:54:00 AM 33.5700 133.8770 241° Southwest 461 531 38,000  Level FlightAware ADS-B
Thu 06:54:45 AM 33.5230 133.7740 241° Southwest 460 529 38,000  Level FlightAware ADS-B
Thu 06:55:30 AM 33.4760 133.6730 241° Southwest 459 528 38,000  Level FlightAware ADS-B
Thu 06:56:10 AM 33.4360 133.5850 241° Southwest 459 528 38,000  Level FlightAware ADS-B
Thu 06:56:51 AM 33.3930 133.4920 241° Southwest 454 522 38,000  Level FlightAware ADS-B
Thu 06:58:06 AM 33.3150 133.3240 241° Southwest 455 524 38,000  Level FlightAware ADS-B
Thu 06:58:51 AM 33.2680 133.2230 241° Southwest 456 525 38,000  Level FlightAware ADS-B
Thu 06:59:36 AM 33.2270 133.1430 239° Southwest 461 531 38,000  Level FlightAware ADS-B
Thu 07:00:30 AM 33.1510 133.0170 234° Southwest 464 534 38,000  Level FlightAware ADS-B
Thu 07:01:15 AM 33.0990 132.9290 235° Southwest 466 536 38,000  Level FlightAware ADS-B
Thu 07:02:00 AM 33.0420 132.8320 235° Southwest 467 537 38,000  Level FlightAware ADS-B
Thu 07:02:42 AM 32.9870 132.7400 235° Southwest 464 534 38,000  Level FlightAware ADS-B
Thu 07:03:22 AM 32.9360 132.6530 235° Southwest 464 534 38,000  Level FlightAware ADS-B
Thu 07:04:08 AM 32.8790 132.5570 235° Southwest 461 531 38,000  Level FlightAware ADS-B
Thu 07:04:43 AM 32.8360 132.4840 235° Southwest 461 531 38,000  Level FlightAware ADS-B
Thu 07:05:28 AM 32.7810 132.3930 234° Southwest 462 532 38,000  Level FlightAware ADS-B
Thu 07:06:08 AM 32.7310 132.3090 235° Southwest 464 534 38,000  Level FlightAware ADS-B
Thu 07:06:53 AM 32.6750 132.2160 234° Southwest 465 535 38,000  Level FlightAware ADS-B
Thu 07:07:33 AM 32.6260 132.1330 235° Southwest 467 537 38,000  Level FlightAware ADS-B
Thu 07:08:13 AM 32.5760 132.0480 235° Southwest 469 540 38,000  Level FlightAware ADS-B
Thu 07:08:58 AM 32.5210 131.9540 235° Southwest 469 540 38,000  Level FlightAware ADS-B
Thu 07:09:43 AM 32.4660 131.8590 236° Southwest 465 535 38,000  Level FlightAware ADS-B
Thu 07:10:23 AM 32.4380 131.7740 249° West 463 533 38,000  Level FlightAware ADS-B
Thu 07:11:16 AM 32.4090 131.6380 256° West 464 534 38,000  Level FlightAware ADS-B
Thu 07:11:56 AM 32.3910 131.5610 255° West 460 529 38,000  Level FlightAware ADS-B
Thu 07:12:42 AM 32.3470 131.4300 248° West 462 532 38,000  Level FlightAware ADS-B
Thu 07:13:27 AM 32.2880 131.3440 231° Southwest 465 535 38,000  Level FlightAware ADS-B
Thu 07:14:07 AM 32.2360 131.2640 232° Southwest 459 528 38,000  Level FlightAware ADS-B
Thu 07:14:47 AM 32.1810 131.1820 232° Southwest 459 528 38,000  Level FlightAware ADS-B
Thu 07:15:25 AM 32.1310 131.1060 232° Southwest 462 532 38,000  Level FlightAware ADS-B
Thu 07:16:05 AM 32.0790 131.0290 231° Southwest 462 532 38,000  Level FlightAware ADS-B
Thu 07:16:50 AM 32.0190 130.9390 232° Southwest 464 534 38,000  Level FlightAware ADS-B
Thu 07:17:30 AM 31.9680 130.8620 232° Southwest 465 535 38,000  Level FlightAware ADS-B
Thu 07:18:15 AM 31.9070 130.7700 232° Southwest 467 537 38,000  Level FlightAware ADS-B
Thu 07:18:55 AM 31.8520 130.6890 231° Southwest 467 537 38,000  Level FlightAware ADS-B
Thu 07:19:35 AM 31.7990 130.6090 232° Southwest 469 540 38,000  Level FlightAware ADS-B
Thu 07:21:03 AM 31.6950 130.4530 232° Southwest 469 540 38,000  Level FlightAware ADS-B
Thu 07:22:35 AM 31.5980 130.3090 232° Southwest 469 540 38,000  Level FlightAware ADS-B
Thu 07:23:23 AM 31.5430 130.2270 232° Southwest 469 540 38,000  Level FlightAware ADS-B
Thu 07:24:20 AM 31.4340 130.0710 231° Southwest 472 543 38,000  Level FlightAware ADS-B
Thu 07:25:17 AM 31.3430 129.9380 231° Southwest 472 543 38,000  Level FlightAware ADS-B
Thu 07:25:52 AM 31.2980 129.8720 231° Southwest 472 543 38,000  Level FlightAware ADS-B
Thu 07:26:31 AM 31.2440 129.7940 231° Southwest 471 542 38,000  Level FlightAware ADS-B
Thu 07:27:23 AM 31.2460 129.7970 52° Northeast 472 543 38,000  Level FlightAware ADS-B
Thu 07:28:01 AM 31.2020 129.7330 231° Southwest 472 543 38,000  Level FlightAware ADS-B
Thu 07:28:49 AM 31.1460 129.6520 231° Southwest 472 543 38,000  Level FlightAware ADS-B
Thu 07:29:23 AM 31.1060 129.5950 231° Southwest 472 543 38,000  Level FlightAware ADS-B
Thu 07:30:13 AM 31.0470 129.5110 231° Southwest 472 543 38,000  Level FlightAware ADS-B
Thu 07:30:49 AM 31.0050 129.4500 231° Southwest 472 543 38,000  Level FlightAware ADS-B
Thu 07:31:37 AM 30.9490 129.3690 231° Southwest 472 543 38,000  Level FlightAware ADS-B
Thu 07:32:13 AM 30.9070 129.3090 231° Southwest 472 543 38,000  Level FlightAware ADS-B
Thu 07:32:49 AM 30.8650 129.2480 231° Southwest 472 543 38,000  Level FlightAware ADS-B
Thu 07:33:36 AM 30.8100 129.1690 231° Southwest 472 543 38,000  Level FlightAware ADS-B
Thu 07:34:12 AM 30.7680 129.1090 231° Southwest 472 543 38,000  Level FlightAware ADS-B
Thu 07:35:00 AM 30.7120 129.0280 231° Southwest 472 543 38,000  Level FlightAware ADS-B
Thu 07:35:36 AM 30.6700 128.9680 231° Southwest 472 543 38,000  Level FlightAware ADS-B
Thu 07:36:24 AM 30.6140 128.8880 231° Southwest 472 543 38,000 -140 Level FlightAware ADS-B
Thu 07:39:00 AM 30.3909 128.5729 231° Southwest  Level FlightAware Approximate
Thu 07:40:00 AM 30.3048 128.4521 231° Southwest  Level FlightAware Approximate
Thu 07:41:00 AM 30.2187 128.3314 230° Southwest  Level FlightAware Approximate
Thu 07:42:00 AM 30.1324 128.2110 230° Southwest  Level FlightAware Approximate
Thu 07:43:00 AM 30.0461 128.0909 230° Southwest  Level FlightAware Approximate
Thu 07:44:00 AM 29.9542 127.9837 231° Southwest  Level FlightAware Approximate
Thu 07:45:00 AM 29.8698 127.8619 231° Southwest  Level FlightAware Approximate
Thu 07:46:00 AM 29.7858 127.7398 232° Southwest  Level FlightAware Approximate
Thu 07:47:00 AM 29.7018 127.6178 232° Southwest  Level FlightAware Approximate
Thu 07:48:00 AM 29.6177 127.4960 232° Southwest  Level FlightAware Approximate
Thu 07:49:00 AM 29.5335 127.3744 231° Southwest  Level FlightAware Approximate
Thu 07:50:00 AM 29.4492 127.2530 231° Southwest  Level FlightAware Approximate
Thu 07:51:00 AM 29.3648 127.1319 231° Southwest  Level FlightAware Approximate
Thu 07:52:00 AM 29.2803 127.0109 231° Southwest  Level FlightAware Approximate
Thu 07:53:00 AM 29.1956 126.8901 231° Southwest  Level FlightAware Approximate
Thu 07:54:00 AM 29.1109 126.7695 231° Southwest  Level FlightAware Approximate
Thu 07:55:00 AM 29.0260 126.6491 231° Southwest  Level FlightAware Approximate
Thu 07:56:00 AM 28.9410 126.5290 231° Southwest  Level FlightAware Approximate
Thu 07:57:00 AM 28.8560 126.4090 231° Southwest  Level FlightAware Approximate
Thu 07:58:00 AM 28.7708 126.2892 231° Southwest  Level FlightAware Approximate
Thu 07:59:00 AM 28.6855 126.1696 231° Southwest  Level FlightAware Approximate
Thu 08:00:00 AM 28.6001 126.0502 231° Southwest  Level FlightAware Approximate
Thu 08:01:00 AM 28.5146 125.9310 231° Southwest  Level FlightAware Approximate
Thu 08:02:00 AM 28.4290 125.8120 231° Southwest  Level FlightAware Approximate
Thu 08:03:00 AM 28.3433 125.6931 231° Southwest  Level FlightAware Approximate
Thu 08:04:00 AM 28.2575 125.5745 231° Southwest  Level FlightAware Approximate
Thu 08:05:00 AM 28.1716 125.4561 231° Southwest  Level FlightAware Approximate
Thu 08:06:00 AM 28.0856 125.3378 231° Southwest  Level FlightAware Approximate
Thu 08:07:00 AM 27.9995 125.2197 230° Southwest  Level FlightAware Approximate
Thu 08:08:00 AM 27.9133 125.1019 230° Southwest  Level FlightAware Approximate
Thu 08:09:00 AM 27.8270 124.9842 230° Southwest  Level FlightAware Approximate
Thu 08:10:00 AM 27.7406 124.8667 230° Southwest  Level FlightAware Approximate
Thu 08:11:00 AM 27.6541 124.7494 230° Southwest  Level FlightAware Approximate
Thu 08:12:00 AM 27.5674 124.6323 230° Southwest  Level FlightAware Approximate
Thu 08:13:00 AM 27.4807 124.5153 230° Southwest  Level FlightAware Approximate
Thu 08:14:00 AM 27.3939 124.3986 230° Southwest  Level FlightAware Approximate
Thu 08:15:00 AM 27.3070 124.2820 230° Southwest  Level FlightAware Approximate
Thu 08:16:00 AM 27.2200 124.1656 230° Southwest  Level FlightAware Approximate
Thu 08:17:00 AM 27.1329 124.0494 230° Southwest  Level FlightAware Approximate
Thu 08:18:00 AM 27.0454 123.9337 229° Southwest  Level FlightAware Approximate
Thu 08:19:00 AM 26.9573 123.8186 229° Southwest  Level FlightAware Approximate
Thu 08:20:00 AM 26.8691 123.7038 229° Southwest  Level FlightAware Approximate
Thu 08:21:00 AM 26.7808 123.5891 229° Southwest  Level FlightAware Approximate
Thu 08:22:00 AM 26.6924 123.4745 229° Southwest  Level FlightAware Approximate
Thu 08:23:00 AM 26.6040 123.3602 229° Southwest  Level FlightAware Approximate
Thu 08:24:00 AM 26.5154 123.2460 229° Southwest  Level FlightAware Approximate
Thu 08:25:00 AM 26.4392 123.1255 233° Southwest  Level FlightAware Approximate
Thu 08:26:00 AM 26.3486 123.0136 227° Southwest  Level FlightAware Approximate
Thu 08:27:00 AM 26.2572 122.9026 227° Southwest  Level FlightAware Approximate
Thu 08:28:00 AM 26.1697 122.7879 233° Southwest  Level FlightAware Approximate
Thu 08:29:00 AM 26.0821 122.6733 229° Southwest  Level FlightAware Approximate
Thu 08:30:00 AM 25.9940 122.5592 228° Southwest  Level FlightAware Approximate
Thu 08:31:00 AM 25.9042 122.4468 228° Southwest  Level FlightAware Approximate
Thu 08:32:00 AM 25.8144 122.3346 228° Southwest  Level FlightAware Approximate
Thu 08:32:49 AM 26.1340 122.6550 229° Southwest 426 490 30,000  Level FlightAware ADS-B
Thu 08:33:00 AM 25.7259 122.2211 229° Southwest  Level FlightAware Approximate
Thu 08:33:29 AM 26.0780 122.5920 225° Southwest 427 491 30,000  Level FlightAware ADS-B
Thu 08:34:14 AM 26.0150 122.5220 225° Southwest 427 491 30,000 -733 Level FlightAware ADS-B
Thu 08:34:59 AM 25.9540 122.4540 225° Southwest 420 483 28,900 -1,744 Descending FlightAware ADS-B
Thu 08:35:40 AM 25.8990 122.3930 225° Southwest 412 474 27,500 -2,025 Descending FlightAware ADS-B
Thu 08:36:19 AM 25.8460 122.3330 226° Southwest 404 465 26,200 -2,071 Descending FlightAware ADS-B
Thu 08:37:04 AM 25.7870 122.2680 225° Southwest 395 455 24,600 -2,000 Descending FlightAware ADS-B
Thu 08:37:40 AM 25.7430 122.2190 225° Southwest 389 448 23,500 -2,000 Descending FlightAware ADS-B
Thu 08:38:19 AM 25.6920 122.1620 225° Southwest 382 440 22,100 -2,071 Descending FlightAware ADS-B
Thu 08:39:04 AM 25.6380 122.1030 225° Southwest 375 432 20,600 -1,725 Descending FlightAware ADS-B
Thu 08:39:39 AM 25.5960 122.0530 227° Southwest 368 423 19,800 -686 Descending FlightAware ADS-B
Thu 08:40:49 AM 25.5420 121.9510 240° Southwest 367 422 19,400 -984 Descending FlightAware ADS-B
Thu 08:41:41 AM 25.5410 121.8590 269° West 362 417 17,800 -1,560 Descending FlightAware ADS-B
Thu 08:42:29 AM 25.5220 121.7540 259° West 341 392 16,800 -510 Descending FlightAware ADS-B
Thu 08:45:00 AM 25.2889 121.4798 235° Southwest  Level Estimated
Thu 08:45:01 AM 25.4790 121.5310 235° Southwest 328 377 16,100  Level FlightAware ADS-B
Thu 08:45:38 AM 25.4690 121.4790 258° West 328 377 16,100  Level FlightAware ADS-B
Thu 08:46:26 AM 25.4560 121.4120 258° West 328 377 16,100  Level FlightAware ADS-B
Thu 08:47:03 AM 25.4460 121.3600 258° West 328 377 16,100 -1,697 Level FlightAware ADS-B
Thu 08:49:00 AM 25.1944 121.2730 197° South  Level Estimated
Thu 08:50:00 AM 25.0777 121.2328 197° South  Level Estimated
Thu 08:50:51 AM 25.1700 121.1710 61° Northeast 8,300  Level FlightAware ADS-B
Thu 08:51:00 AM 25.0777 121.2328 61° Northeast  Level Estimated
Thu 08:51:16 AM 25.1550 121.1470 235° Southwest 244 281 7,900  Level FlightAware ADS-B
Thu 08:51:42 AM 25.1420 121.1240 238° Southwest 244 281 7,900  Level FlightAware ADS-B
Thu 08:54:00 AM 25.0777 121.2328 123° Southeast  Level Estimated
Thu 08:55:00 AM 25.0777 121.2328 61° Northeast  Level Estimated

Login

Don't have an account? Register now (free) for customized features, flight alerts, and more!